M I D A S
Marine Information and Data Acquisition System
Tripno 921 of the Zeeleeuw from 2005-06-24 07:29:11 to 2005-06-24 13:46:21
Back to CruiseResearch ActivitiesStationsMapUnderway DataData graphs

EquipmentUnitsComment
TimeDGPSUTC
LatitudeDGPSDM.mWGS84
LongitudeDGPSDM.mWGS84
TemperatureSBE03/SBE38deg celciusITS90
ConductivitySBE21S/mITS90
SalinitySBE21 Practical Salinity Units
ChlorophylAChelsea fluorimeterg/lCalibrated in Aceton
Missing or incorrect values are displayed as -999
Sea surface data collected by the RV Zeeleeuw from 2005-06-24 07:30:35 to 2005-06-24 15:58:47
                                                                                    Next 1000 lines
Time Latitude Longitude Temperature Conductivity Salinity ChlorophylA
2005-06-24 07:30:45 51°13.598 2°56.101 22.3376 4.98955 31.602467 -0.208189
2005-06-24 07:30:49 51°13.599 2°56.099 21.5927 4.989339 31.601411 -0.208189
2005-06-24 07:30:55 51°13.6 2°56.094 21.1548 4.958741 31.38129 -0.208189
2005-06-24 07:31:01 51°13.601 2°56.09 20.8435 4.813783 30.482634 -0.17448
2005-06-24 07:31:05 51°13.603 2°56.086 20.5803 4.609877 29.194364 -0.208189
2005-06-24 07:31:11 51°13.604 2°56.081 20.3226 4.609877 29.194364 -0.208189
2005-06-24 07:31:15 51°13.605 2°56.077 20.149 4.663162 30.286119 -0.17448
2005-06-24 07:31:21 51°13.608 2°56.071 20.0519 4.670347 30.878372 -0.208189
2005-06-24 07:31:25 51°13.61 2°56.066 19.9002 4.684496 31.627753 3.702101
2005-06-24 07:31:30 51°13.613 2°56.06 19.8891 4.62881 31.67216 3.297589
2005-06-24 07:31:36 51°13.615 2°56.052 19.7946 4.479148 30.913743 3.297589
2005-06-24 07:31:41 51°13.618 2°56.045 19.7209 4.479148 30.913743 3.297589
2005-06-24 07:31:45 51°13.621 2°56.037 19.7106 4.328767 30.073325 3.23017
2005-06-24 07:31:51 51°13.623 2°56.029 19.6206 4.318227 30.253014 3.19646
2005-06-24 07:31:56 51°13.626 2°56.019 19.5805 4.252221 29.971709 3.129042
2005-06-24 07:32:00 51°13.629 2°56.013 19.516 4.148893 29.324242 3.129042
2005-06-24 07:32:05 51°13.631 2°56.004 19.4932 4.19339 29.810996 3.027913
2005-06-24 07:32:11 51°13.634 2°55.994 19.4654 4.19339 29.810996 3.027913
2005-06-24 07:32:15 51°13.637 2°55.986 19.4588 4.202249 29.989668 2.825657
2005-06-24 07:32:21 51°13.64 2°55.976 19.4105 4.177156 29.869386 2.994204
2005-06-24 07:32:26 51°13.643 2°55.966 19.389 4.131504 29.569808 3.23017
2005-06-24 07:32:31 51°13.646 2°55.955 19.3861 4.147742 29.756891 3.129042
2005-06-24 07:32:35 51°13.649 2°55.946 19.3965 4.163453 29.940091 3.398717
2005-06-24 07:32:41 51°13.653 2°55.935 19.4039 4.163453 29.940091 3.398717
2005-06-24 07:32:45 51°13.656 2°55.925 19.4056 4.167249 30.011762 3.331298
2005-06-24 07:32:51 51°13.659 2°55.914 19.3634 4.114217 29.627773 3.870648
2005-06-24 07:32:55 51°13.662 2°55.904 19.3639 4.136569 29.838764 3.533554
2005-06-24 07:33:00 51°13.665 2°55.894 19.323 4.140682 29.897992 3.836939
2005-06-24 07:33:06 51°13.668 2°55.883 19.3528 4.132037 29.853095 3.76952
2005-06-24 07:33:11 51°13.671 2°55.872 19.3487 4.132037 29.853095 3.76952
2005-06-24 07:33:15 51°13.674 2°55.864 19.3398 4.135622 29.896581 3.76952
2005-06-24 07:33:21 51°13.677 2°55.852 19.3143 4.139628 29.933909 3.80323
2005-06-24 07:33:25 51°13.679 2°55.844 19.293 4.131088 29.874184 4.308871
2005-06-24 07:33:31 51°13.682 2°55.833 19.2808 4.117488 29.775685 3.971777
2005-06-24 07:33:35 51°13.684 2°55.826 19.2836 4.10937 29.724352 4.241452
2005-06-24 07:33:40 51°13.686 2°55.816 19.2778 4.10937 29.724352 4.241452
2005-06-24 07:33:45 51°13.688 2°55.806 19.284 4.107894 29.726027 4.443708
2005-06-24 07:33:51 51°13.69 2°55.796 19.2551 4.111057 29.757062 4.511127
2005-06-24 07:33:55 51°13.691 2°55.788 19.2601 4.109265 29.745629 4.376289
2005-06-24 07:34:01 51°13.693 2°55.778 19.2445 4.095454 29.646825 4.544836
2005-06-24 07:34:05 51°13.694 2°55.77 19.2534 4.113799 29.80842 4.544836
2005-06-24 07:34:09 51°13.695 2°55.764 19.2334 4.113799 29.80842 4.544836
2005-06-24 07:34:15 51°13.695 2°55.758 19.2241 4.112534 29.810831 4.747093
2005-06-24 07:34:21 51°13.697 2°55.756 19.2054 4.070047 29.474986 4.983059
2005-06-24 07:34:25 51°13.698 2°55.755 19.2147 4.099567 29.720739 4.949349
2005-06-24 07:34:31 51°13.698 2°55.756 19.2203 4.103046 29.755397 5.421281
2005-06-24 07:34:35 51°13.699 2°55.757 19.2213 4.069731 29.492431 4.713383
2005-06-24 07:34:41 51°13.7 2°55.757 19.2249 4.069731 29.492431 4.713383
2005-06-24 07:34:45 51°13.7 2°55.756 19.2147 4.088181 29.64791 5.050477
2005-06-24 07:34:50 51°13.7 2°55.755 19.2202 4.08681 29.641366 4.679674
2005-06-24 07:34:55 51°13.699 2°55.752 19.2315 4.075425 29.555927 4.747093
2005-06-24 07:34:59 51°13.698 2°55.749 19.2221 4.047382 29.341014 4.848221
2005-06-24 07:35:05 51°13.697 2°55.745 19.2528 4.06425 29.482205 4.88193
2005-06-24 07:35:10 51°13.697 2°55.743 19.2391 4.06425 29.482205 4.88193
2005-06-24 07:35:15 51°13.697 2°55.742 19.2438 4.054129 29.403466 4.88193
2005-06-24 07:35:20 51°13.698 2°55.741 19.2148 4.040108 29.289275 4.91564
2005-06-24 07:35:25 51°13.699 2°55.742 19.2174 4.006585 29.021851 4.848221
2005-06-24 07:35:29 51°13.702 2°55.743 19.2673 3.961151 28.655445 4.814512
2005-06-24 07:35:35 51°13.705 2°55.745 19.2236 3.90402 28.19768 4.679674
2005-06-24 07:35:39 51°13.709 2°55.745 19.2379 3.90402 28.19768 4.679674
2005-06-24 07:35:45 51°13.715 2°55.745 19.2297 3.8568 27.816539 4.814512
2005-06-24 07:35:49 51°13.719 2°55.743 19.2288 3.820755 27.524158 4.949349
2005-06-24 07:35:54 51°13.725 2°55.74 19.2705 3.795777 27.324409 4.983059
2005-06-24 07:36:00 51°13.731 2°55.735 19.261 3.789348 27.276732 4.713383
2005-06-24 07:36:05 51°13.736 2°55.731 19.2592 3.788611 27.274075 4.91564
2005-06-24 07:36:09 51°13.74 2°55.728 19.2732 3.792299 27.301707 5.016768
2005-06-24 07:36:15 51°13.745 2°55.722 19.262 3.792299 27.301707 5.016768
2005-06-24 07:36:20 51°13.75 2°55.716 19.2268 3.781971 27.222399 5.084187
2005-06-24 07:36:25 51°13.756 2°55.71 19.2372 3.789875 27.282795 4.983059
2005-06-24 07:36:30 51°13.762 2°55.703 19.2267 3.769535 27.120286 4.88193
2005-06-24 07:36:35 51°13.768 2°55.696 19.2256 3.772381 27.137948 5.050477
2005-06-24 07:36:40 51°13.775 2°55.689 19.2202 3.772381 27.137948 5.050477
2005-06-24 07:36:45 51°13.782 2°55.682 19.218 3.766163 27.081868 5.084187
2005-06-24 07:36:50 51°13.789 2°55.676 19.2368 3.777966 27.171496 5.117896
2005-06-24 07:36:55 51°13.797 2°55.668 19.2292 3.795144 27.309626 5.016768
2005-06-24 07:36:59 51°13.803 2°55.662 19.2224 3.799571 27.352881 4.780802
2005-06-24 07:37:05 51°13.813 2°55.651 19.1977 3.809583 27.438518 4.91564
2005-06-24 07:37:10 51°13.821 2°55.644 19.2016 3.809583 27.438518 4.91564
2005-06-24 07:37:15 51°13.829 2°55.636 19.1895 3.820333 27.528725 4.91564
2005-06-24 07:37:19 51°13.836 2°55.628 19.226 3.82866 27.599588 5.016768
2005-06-24 07:37:25 51°13.846 2°55.619 19.2037 3.837724 27.673587 4.88193
2005-06-24 07:37:29 51°13.853 2°55.612 19.1858 3.848158 27.758129 4.848221
2005-06-24 07:37:35 51°13.863 2°55.604 19.1819 3.835827 27.6598 4.949349
2005-06-24 07:37:40 51°13.874 2°55.597 19.1706 3.835827 27.6598 4.949349
2005-06-24 07:37:45 51°13.882 2°55.591 19.1583 3.859857 27.853799 5.016768
2005-06-24 07:37:49 51°13.891 2°55.585 19.1526 3.867235 27.920552 5.016768
2005-06-24 07:37:55 51°13.902 2°55.578 19.1602 3.885048 28.067324 5.084187
2005-06-24 07:37:59 51°13.911 2°55.573 19.144 3.895272 28.148477 5.320153
2005-06-24 07:38:05 51°13.924 2°55.564 19.1336 3.905707 28.230874 5.185315
2005-06-24 07:38:09 51°13.932 2°55.559 19.137 3.905707 28.230874 5.185315
2005-06-24 07:38:15 51°13.944 2°55.551 19.1259 3.924575 28.388809 4.983059
2005-06-24 07:38:20 51°13.956 2°55.543 19.1252 3.936064 28.49238 4.949349
2005-06-24 07:38:25 51°13.966 2°55.536 19.1205 3.947343 28.59146 4.88193
2005-06-24 07:38:30 51°13.977 2°55.53 19.1068 3.967161 28.75508 4.848221
2005-06-24 07:38:35 51°13.987 2°55.523 19.1001 3.984027 28.899481 4.88193
2005-06-24 07:38:40 51°13.999 2°55.516 19.1001 3.984027 28.899481 4.88193
2005-06-24 07:38:45 51°14.01 2°55.509 19.0869 3.990457 28.955823 4.848221
2005-06-24 07:38:49 51°14.019 2°55.504 19.1024 4.008694 29.108577 5.185315
2005-06-24 07:38:55 51°14.032 2°55.496 19.0921 4.01755 29.186117 5.286443
2005-06-24 07:39:00 51°14.042 2°55.489 19.079 4.037052 29.350375 5.286443
2005-06-24 07:39:05 51°14.053 2°55.482 19.0843 4.051812 29.472881 5.421281
2005-06-24 07:39:10 51°14.063 2°55.476 19.0706 4.051812 29.472881 5.421281
2005-06-24 07:39:15 51°14.074 2°55.469 19.07 4.06636 29.595793 5.421281
2005-06-24 07:39:20 51°14.085 2°55.462 19.0708 4.080593 29.713717 5.4887
2005-06-24 07:39:25 51°14.097 2°55.454 19.0573 4.089027 29.786706 5.353862
2005-06-24 07:39:30 51°14.107 2°55.446 19.06 4.105157 29.919678 5.421281
2005-06-24 07:39:35 51°14.117 2°55.438 19.0564 4.1157 30.01145 5.320153
2005-06-24 07:39:40 51°14.129 2°55.429 19.0637 4.1157 30.01145 5.320153
2005-06-24 07:39:45 51°14.14 2°55.419 19.0694 4.139844 30.211836 5.252734
2005-06-24 07:39:50 51°14.15 2°55.41 19.0824 4.1545 30.332626 5.252734
2005-06-24 07:39:55 51°14.161 2°55.4 19.0991 4.166203 30.432055 5.252734
2005-06-24 07:40:00 51°14.172 2°55.389 19.108 4.172319 30.487069 5.657247
2005-06-24 07:40:05 51°14.184 2°55.377 19.1354 4.167258 30.450524 5.4887
2005-06-24 07:40:10 51°14.194 2°55.364 19.145 4.167258 30.450524 5.4887
2005-06-24 07:40:15 51°14.204 2°55.352 19.1599 4.178118 30.541623 5.421281
2005-06-24 07:40:19 51°14.21 2°55.344 19.1517 4.172846 30.500222 5.556118
2005-06-24 07:40:25 51°14.222 2°55.328 19.1555 4.177907 30.539383 5.421281
2005-06-24 07:40:30 51°14.229 2°55.317 19.149 4.174954 30.509587 5.353862
2005-06-24 07:40:35 51°14.237 2°55.304 19.1444 4.158295 30.368187 5.421281
2005-06-24 07:40:40 51°14.245 2°55.29 19.144 4.158295 30.368187 5.421281
2005-06-24 07:40:45 51°14.252 2°55.276 19.1385 4.160826 30.376857 5.387571
2005-06-24 07:40:50 51°14.259 2°55.265 19.1465 4.159455 30.353784 5.623537
2005-06-24 07:40:55 51°14.266 2°55.252 19.1455 4.159138 30.341375 5.589828
2005-06-24 07:41:00 51°14.273 2°55.238 19.1271 4.156924 30.317165 5.421281
2005-06-24 07:41:05 51°14.28 2°55.225 19.1358 4.145432 30.220662 5.522409
2005-06-24 07:41:09 51°14.286 2°55.215 19.12 4.145432 30.220662 5.522409
2005-06-24 07:41:15 51°14.294 2°55.2 19.1183 4.142058 30.193765 5.421281
2005-06-24 07:41:20 51°14.302 2°55.185 19.1104 4.159771 30.339793 5.724665
2005-06-24 07:41:25 51°14.31 2°55.171 19.0976 4.149754 30.257853 5.4887
2005-06-24 07:41:30 51°14.318 2°55.156 19.097 4.147119 30.235916 5.724665
2005-06-24 07:41:35 51°14.325 2°55.143 19.0944 4.15355 30.290254 5.825794
2005-06-24 07:41:40 51°14.335 2°55.126 19.0896 4.171474 30.44068 5.758375
2005-06-24 07:41:45 51°14.344 2°55.111 19.0809 4.171474 30.44068 5.758375
2005-06-24 07:41:50 51°14.352 2°55.097 19.06 4.167151 30.407069 5.657247
2005-06-24 07:41:55 51°14.361 2°55.081 19.0632 4.186025 30.565871 5.657247
2005-06-24 07:42:00 51°14.37 2°55.065 19.0549 4.187923 30.586022 5.623537
2005-06-24 07:42:05 51°14.381 2°55.046 19.0499 4.194987 30.650364 5.589828
2005-06-24 07:42:09 51°14.389 2°55.031 19.0544 4.194987 30.650364 5.589828
2005-06-24 07:42:15 51°14.401 2°55.009 19.0542 4.192984 30.637179 5.623537
2005-06-24 07:42:20 51°14.411 2°54.99 19.0518 4.204477 30.735571 6.061759
2005-06-24 07:42:25 51°14.421 2°54.97 19.0374 4.205426 30.749085 6.162888
2005-06-24 07:42:29 51°14.429 2°54.952 19.0353 4.204056 30.745784 6.061759
2005-06-24 07:42:35 51°14.44 2°54.928 19.019 4.216287 30.855593 6.02805
2005-06-24 07:42:40 51°14.45 2°54.905 19.0262 4.216287 30.855593 6.02805
2005-06-24 07:42:45 51°14.461 2°54.879 19.0197 4.227358 30.94758 5.792084
2005-06-24 07:42:50 51°14.469 2°54.856 19.0128 4.234845 31.013504 5.758375
2005-06-24 07:42:55 51°14.478 2°54.831 19.0297 4.239485 31.05301 5.758375
2005-06-24 07:43:00 51°14.488 2°54.803 19.0439 4.243492 31.087886 5.724665
2005-06-24 07:43:05 51°14.496 2°54.776 19.0516 4.245495 31.107989 5.724665
2005-06-24 07:43:10 51°14.502 2°54.747 19.0456 4.245495 31.107989 5.724665
2005-06-24 07:43:15 51°14.509 2°54.719 19.0423 4.244441 31.105753 5.690956
2005-06-24 07:43:20 51°14.515 2°54.69 19.0295 4.245917 31.12315 5.657247
2005-06-24 07:43:25 51°14.52 2°54.66 19.0199 4.246866 31.135709 5.589828
2005-06-24 07:43:30 51°14.524 2°54.633 19.0083 4.252455 31.181968 5.623537
2005-06-24 07:43:35 51°14.527 2°54.602 19.0022 4.255724 31.207116 5.556118
2005-06-24 07:43:41 51°14.531 2°54.566 18.9902 4.255724 31.207116 5.556118
2005-06-24 07:43:45 51°14.532 2°54.54 18.9756 4.262788 31.257449 5.623537
2005-06-24 07:43:50 51°14.533 2°54.509 18.9683 4.272806 31.334083 5.589828
2005-06-24 07:43:55 51°14.532 2°54.477 18.9517 4.283245 31.419552 5.657247
2005-06-24 07:44:00 51°14.529 2°54.443 18.9411 4.294423 31.514877 5.589828
2005-06-24 07:44:05 51°14.525 2°54.412 18.9468 4.305179 31.611678 5.690956
2005-06-24 07:44:10 51°14.52 2°54.381 18.9435 4.305179 31.611678 5.690956
2005-06-24 07:44:15 51°14.515 2°54.354 18.9535 4.314459 31.693745 5.556118
2005-06-24 07:44:20 51°14.507 2°54.321 18.9522 4.318783 31.737912 5.556118
2005-06-24 07:44:25 51°14.5 2°54.291 18.9678 4.321841 31.7739 5.690956
2005-06-24 07:44:29 51°14.494 2°54.267 18.972 4.325321 31.811744 5.690956
2005-06-24 07:44:35 51°14.485 2°54.235 18.9728 4.326798 31.833697 5.724665
2005-06-24 07:44:40 51°14.475 2°54.204 18.9701 4.326798 31.833697 5.724665
2005-06-24 07:44:45 51°14.467 2°54.178 18.9681 4.32954 31.862787 5.623537
2005-06-24 07:44:49 51°14.459 2°54.152 18.9734 4.331227 31.882674 5.522409
2005-06-24 07:44:55 51°14.448 2°54.119 18.9579 4.332598 31.893399 5.45499
2005-06-24 07:45:00 51°14.438 2°54.091 18.9473 4.334391 31.906497 5.657247
2005-06-24 07:45:05 51°14.429 2°54.066 18.9506 4.333441 31.894862 5.657247
2005-06-24 07:45:09 51°14.42 2°54.041 18.949 4.33418 31.897647 5.556118
2005-06-24 07:45:15 51°14.409 2°54.006 18.9432 4.33418 31.897647 5.556118
2005-06-24 07:45:20 51°14.399 2°53.978 18.9376 4.331543 31.872149 5.623537
2005-06-24 07:45:25 51°14.39 2°53.95 18.9292 4.336816 31.916036 5.657247
2005-06-24 07:45:30 51°14.382 2°53.924 18.9143 4.336078 31.910515 5.623537
2005-06-24 07:45:35 51°14.373 2°53.895 18.9073 4.339663 31.942731 5.589828
2005-06-24 07:45:40 51°14.363 2°53.863 18.9081 4.339663 31.942731 5.589828
2005-06-24 07:45:45 51°14.353 2°53.835 18.9083 4.340718 31.956336 5.4887
2005-06-24 07:45:50 51°14.343 2°53.807 18.8911 4.34114 31.963096 5.556118
2005-06-24 07:45:55 51°14.334 2°53.782 18.8864 4.341456 31.968441 5.589828
2005-06-24 07:46:01 51°14.321 2°53.748 18.8915 4.344409 31.997125 5.623537
2005-06-24 07:46:05 51°14.311 2°53.724 18.886 4.347045 32.023215 5.589828
2005-06-24 07:46:10 51°14.301 2°53.7 18.8767 4.347045 32.023215 5.589828
2005-06-24 07:46:15 51°14.29 2°53.673 18.8851 4.34926 32.049696 5.623537
2005-06-24 07:46:20 51°14.277 2°53.643 18.8862 4.353795 32.093646 5.589828
2005-06-24 07:46:25 51°14.266 2°53.617 18.8865 4.355904 32.115983 5.522409
2005-06-24 07:46:29 51°14.257 2°53.595 18.8885 4.35949 32.152151 5.45499
2005-06-24 07:46:35 51°14.243 2°53.563 18.8846 4.363075 32.185573 5.421281
2005-06-24 07:46:40 51°14.233 2°53.535 18.8817 4.363075 32.185573 5.421281
2005-06-24 07:46:45 51°14.222 2°53.507 18.8805 4.365501 32.208335 5.387571
2005-06-24 07:46:50 51°14.212 2°53.479 18.8896 4.369087 32.240669 5.421281
2005-06-24 07:46:55 51°14.204 2°53.453 18.8836 4.368454 32.239886 5.387571
2005-06-24 07:47:00 51°14.193 2°53.422 18.8776 4.372251 32.271199 5.353862
2005-06-24 07:47:05 51°14.184 2°53.396 18.8722 4.373411 32.280212 5.421281
2005-06-24 07:47:09 51°14.176 2°53.37 18.8617 4.373411 32.280212 5.421281
2005-06-24 07:47:15 51°14.164 2°53.335 18.8604 4.368032 32.234744 5.421281
2005-06-24 07:47:19 51°14.156 2°53.312 18.8618 4.372461 32.272938 5.421281
2005-06-24 07:47:25 51°14.144 2°53.278 18.8609 4.370985 32.260206 5.387571
2005-06-24 07:47:30 51°14.134 2°53.253 18.8595 4.377523 32.31414 5.387571
2005-06-24 07:47:35 51°14.123 2°53.225 18.8688 4.381531 32.349428 5.387571
2005-06-24 07:47:40 51°14.111 2°53.195 18.8709 4.381531 32.349428 5.387571
2005-06-24 07:47:45 51°14.099 2°53.167 18.8754 4.384378 32.374039 5.252734
2005-06-24 07:47:50 51°14.088 2°53.14 18.8751 4.386593 32.397889 5.252734
2005-06-24 07:47:55 51°14.076 2°53.112 18.8734 4.393448 32.460068 5.185315
2005-06-24 07:48:00 51°14.065 2°53.084 18.8723 4.391023 32.441712 5.185315
2005-06-24 07:48:05 51°14.054 2°53.056 18.8779 4.395979 32.486563 5.151606
2005-06-24 07:48:09 51°14.046 2°53.034 18.8681 4.395979 32.486563 5.151606
2005-06-24 07:48:15 51°14.034 2°53.002 18.8672 4.395979 32.486563 5.286443
2005-06-24 07:48:20 51°14.023 2°52.97 18.8631 4.398721 32.505858 5.252734
2005-06-24 07:48:25 51°14.014 2°52.944 18.864 4.398405 32.499888 5.050477
2005-06-24 07:48:30 51°14.002 2°52.913 18.8616 4.399565 32.508352 5.117896
2005-06-24 07:48:35 51°13.993 2°52.887 18.8636 4.400725 32.517375 5.050477
2005-06-24 07:48:40 51°13.981 2°52.855 18.8587 4.401569 32.524344 5.050477
2005-06-24 07:48:45 51°13.971 2°52.827 18.849 4.401569 32.524344 5.050477
2005-06-24 07:48:50 51°13.961 2°52.801 18.8511 4.40526 32.553156 5.084187
2005-06-24 07:48:55 51°13.95 2°52.773 18.8477 4.404627 32.550169 5.117896
2005-06-24 07:49:00 51°13.938 2°52.745 18.8465 4.408213 32.582597 5.050477
2005-06-24 07:49:05 51°13.926 2°52.715 18.8484 4.408635 32.586644 5.050477
2005-06-24 07:49:10 51°13.914 2°52.687 18.8469 4.408635 32.586644 5.050477
2005-06-24 07:49:15 51°13.903 2°52.659 18.8445 4.407475 32.57874 5.016768
2005-06-24 07:49:20 51°13.892 2°52.631 18.851 4.4099 32.600469 4.949349
2005-06-24 07:49:25 51°13.881 2°52.602 18.8511 4.411904 32.620399 4.88193
2005-06-24 07:49:29 51°13.873 2°52.579 18.8542 4.41317 32.633108 4.91564
2005-06-24 07:49:35 51°13.861 2°52.547 18.8586 4.416123 32.661459 4.88193
2005-06-24 07:49:40 51°13.85 2°52.516 18.8479 4.416123 32.661459 4.88193
2005-06-24 07:49:45 51°13.84 2°52.49 18.8524 4.417388 32.672487 4.88193
2005-06-24 07:49:49 51°13.831 2°52.464 18.848 4.416228 32.665706 4.91564
2005-06-24 07:49:55 51°13.818 2°52.43 18.8494 4.416861 32.670377 4.91564
2005-06-24 07:50:00 51°13.807 2°52.402 18.8482 4.417705 32.676792 5.050477
2005-06-24 07:50:05 51°13.797 2°52.376 18.8494 4.416017 32.662837 5.185315
2005-06-24 07:50:09 51°13.787 2°52.351 18.8505 4.416017 32.662837 5.185315
2005-06-24 07:50:15 51°13.773 2°52.317 18.8552 4.412221 32.629756 5.117896
2005-06-24 07:50:20 51°13.761 2°52.289 18.8509 4.415068 32.652738 4.983059
2005-06-24 07:50:25 51°13.75 2°52.262 18.8485 4.415174 32.654735 5.050477
2005-06-24 07:50:30 51°13.74 2°52.236 18.8506 4.414752 32.651247 4.949349
2005-06-24 07:50:35 51°13.729 2°52.208 18.8506 4.413592 32.642778 5.016768
2005-06-24 07:50:40 51°13.717 2°52.176 18.8516 4.413592 32.642778 5.016768
2005-06-24 07:50:45 51°13.707 2°52.148 18.8546 4.414014 32.646829 5.016768
2005-06-24 07:50:49 51°13.698 2°52.125 18.8542 4.418443 32.684023 4.949349
2005-06-24 07:50:55 51°13.685 2°52.09 18.8447 4.41201 32.629135 4.983059
2005-06-24 07:51:00 51°13.674 2°52.061 18.8453 4.417177 32.671868 4.983059
2005-06-24 07:51:05 51°13.665 2°52.035 18.8412 4.414225 32.648573 4.983059
2005-06-24 07:51:10 51°13.652 2°52.005 18.8434 4.414225 32.648573 4.983059
2005-06-24 07:51:15 51°13.642 2°51.979 18.8381 4.418759 32.68664 4.983059
2005-06-24 07:51:20 51°13.631 2°51.951 18.8376 4.419709 32.694491 4.91564
2005-06-24 07:51:25 51°13.619 2°51.919 18.8363 4.413803 32.645647 5.050477
2005-06-24 07:51:30 51°13.608 2°51.891 18.8357 4.419392 32.692437 5.050477
2005-06-24 07:51:35 51°13.598 2°51.865 18.8365 4.415912 32.66534 4.983059
2005-06-24 07:51:40 51°13.586 2°51.834 18.8277 4.415912 32.66534 4.983059
2005-06-24 07:51:45 51°13.575 2°51.805 18.8319 4.416017 32.667337 4.88193
2005-06-24 07:51:50 51°13.564 2°51.776 18.833 4.425931 32.75104 4.713383
2005-06-24 07:51:55 51°13.553 2°51.747 18.8318 4.427408 32.764387 4.713383
2005-06-24 07:51:59 51°13.545 2°51.724 18.8337 4.42804 32.770188 4.713383
2005-06-24 07:52:05 51°13.532 2°51.69 18.8294 4.42456 32.744208 4.780802
2005-06-24 07:52:10 51°13.522 2°51.663 18.8292 4.42456 32.744208 4.780802
2005-06-24 07:52:15 51°13.511 2°51.635 18.8245 4.424666 32.746774 4.848221
2005-06-24 07:52:20 51°13.499 2°51.603 18.8243 4.424877 32.749083 4.814512
2005-06-24 07:52:25 51°13.488 2°51.575 18.8268 4.425298 32.754268 4.814512
2005-06-24 07:52:29 51°13.479 2°51.552 18.8317 4.429095 32.786259 4.780802
2005-06-24 07:52:35 51°13.465 2°51.518 18.8296 4.428146 32.779531 4.814512
2005-06-24 07:52:40 51°13.455 2°51.493 18.8314 4.428146 32.779531 4.814512
2005-06-24 07:52:45 51°13.442 2°51.462 18.8345 4.426142 32.762945 4.747093
2005-06-24 07:52:50 51°13.431 2°51.433 18.836 4.430994 32.803669 4.747093
2005-06-24 07:52:55 51°13.421 2°51.408 18.8332 4.43131 32.80855 4.780802
2005-06-24 07:53:00 51°13.408 2°51.377 18.8384 4.428779 32.78929 4.848221
2005-06-24 07:53:05 51°13.397 2°51.348 18.8387 4.42899 32.791036 5.050477
2005-06-24 07:53:10 51°13.386 2°51.323 18.8362 4.42899 32.791036 5.050477
2005-06-24 07:53:15 51°13.375 2°51.295 18.8382 4.427091 32.773625 5.084187
2005-06-24 07:53:20 51°13.363 2°51.263 18.8383 4.432154 32.814405 4.848221
2005-06-24 07:53:25 51°13.352 2°51.235 18.8342 4.429412 32.790573 4.91564
2005-06-24 07:53:29 51°13.343 2°51.212 18.8357 4.431732 32.808085 4.814512
2005-06-24 07:53:35 51°13.331 2°51.18 18.8328 4.433103 32.819436 4.91564
2005-06-24 07:53:40 51°13.319 2°51.15 18.8347 4.433103 32.819436 4.91564
2005-06-24 07:53:45 51°13.307 2°51.121 18.8331 4.428779 32.781945 4.91564
2005-06-24 07:53:50 51°13.297 2°51.095 18.8322 4.430361 32.794475 4.848221
2005-06-24 07:53:55 51°13.285 2°51.064 18.8306 4.428779 32.78025 4.612255
2005-06-24 07:54:00 51°13.275 2°51.038 18.8282 4.427935 32.773832 4.578546
2005-06-24 07:54:05 51°13.262 2°51.007 18.829 4.428251 32.778145 4.544836
2005-06-24 07:54:09 51°13.253 2°50.985 18.829 4.428251 32.778145 4.544836
2005-06-24 07:54:15 51°13.241 2°50.953 18.8323 4.427935 32.776091 4.477418
2005-06-24 07:54:19 51°13.232 2°50.93 18.8278 4.42804 32.775269 4.443708
2005-06-24 07:54:25 51°13.218 2°50.893 18.8279 4.428568 32.782458 4.409999
2005-06-24 07:54:29 51°13.209 2°50.87 18.8265 4.427724 32.77491 4.376289
2005-06-24 07:54:35 51°13.195 2°50.835 18.8257 4.428251 32.781534 4.376289
2005-06-24 07:54:40 51°13.184 2°50.807 18.8298 4.428251 32.781534 4.376289
2005-06-24 07:54:45 51°13.173 2°50.779 18.827 4.429517 32.792576 4.34258
2005-06-24 07:54:49 51°13.164 2°50.756 18.8327 4.42899 32.789341 4.275161
2005-06-24 07:54:55 51°13.15 2°50.722 18.8387 4.429517 32.793706 4.409999
2005-06-24 07:55:01 51°13.137 2°50.691 18.838 4.429834 32.796891 4.207742
2005-06-24 07:55:05 51°13.127 2°50.665 18.837 4.430044 32.798637 4.376289
2005-06-24 07:55:09 51°13.118 2°50.642 18.8416 4.430044 32.798637 4.376289
2005-06-24 07:55:15 51°13.105 2°50.611 18.8448 4.431626 32.812866 4.275161
2005-06-24 07:55:20 51°13.093 2°50.579 18.8412 4.430255 32.80208 4.275161
2005-06-24 07:55:25 51°13.082 2°50.551 18.8449 4.431626 32.813432 4.34258
2005-06-24 07:55:29 51°13.073 2°50.528 18.8459 4.430361 32.801257 4.409999
2005-06-24 07:55:35 51°13.059 2°50.493 18.8438 4.430044 32.795811 4.275161
2005-06-24 07:55:39 51°13.052 2°50.473 18.8412 4.430361 32.7973 4.409999
2005-06-24 07:55:45 51°13.037 2°50.436 18.8415 4.430361 32.7973 4.409999
2005-06-24 07:55:49 51°13.028 2°50.414 18.8367 4.429095 32.785129 4.308871
2005-06-24 07:55:55 51°13.014 2°50.379 18.8414 4.42804 32.77414 4.511127
2005-06-24 07:56:00 51°13.003 2°50.354 18.8369 4.428568 32.778505 4.511127
2005-06-24 07:56:05 51°12.99 2°50.323 18.8353 4.434052 32.823335 4.544836
2005-06-24 07:56:10 51°12.98 2°50.297 18.8347 4.434052 32.823335 4.544836
2005-06-24 07:56:15 51°12.968 2°50.269 18.8336 4.434263 32.823385 4.511127
2005-06-24 07:56:19 51°12.96 2°50.246 18.8316 4.434263 32.823385 4.544836
2005-06-24 07:56:25 51°12.945 2°50.208 18.8243 4.435528 32.833861 4.376289
2005-06-24 07:56:29 51°12.937 2°50.186 18.8197 4.435845 32.83931 4.409999
2005-06-24 07:56:35 51°12.923 2°50.151 18.8182 4.437216 32.850661 4.409999
2005-06-24 07:56:40 51°12.912 2°50.123 18.8091 4.437216 32.850661 4.409999
2005-06-24 07:56:45 51°12.9 2°50.095 18.807 4.438165 32.859653 4.376289
2005-06-24 07:56:49 51°12.891 2°50.072 18.8047 4.43922 32.868952 4.376289
2005-06-24 07:56:55 51°12.878 2°50.041 18.7992 4.441013 32.886633 4.376289
2005-06-24 07:56:59 51°12.869 2°50.018 18.8064 4.442806 32.901482 4.376289
2005-06-24 07:57:05 51°12.854 2°49.981 18.8004 4.444915 32.92406 4.409999
2005-06-24 07:57:10 51°12.844 2°49.955 18.7989 4.444915 32.92406 4.409999
2005-06-24 07:57:15 51°12.833 2°49.926 18.8026 4.446919 32.942366 4.34258
2005-06-24 07:57:20 51°12.821 2°49.895 18.7945 4.444493 32.927377 4.34258
2005-06-24 07:57:25 51°12.81 2°49.869 18.795 4.446392 32.945948 4.376289
2005-06-24 07:57:30 51°12.799 2°49.84 18.7916 4.447025 32.955739 4.308871
2005-06-24 07:57:35 51°12.788 2°49.812 18.7894 4.447763 32.964701 4.039195
2005-06-24 07:57:39 51°12.779 2°49.788 18.7889 4.447763 32.964701 4.039195
2005-06-24 07:57:45 51°12.764 2°49.751 18.7841 4.447552 32.962953 3.938067
2005-06-24 07:57:49 51°12.755 2°49.728 18.7926 4.448185 32.969904 3.904358
2005-06-24 07:57:55 51°12.743 2°49.697 18.793 4.448607 32.97454 3.904358
2005-06-24 07:58:00 51°12.732 2°49.668 18.7934 4.449872 32.98674 3.870648
2005-06-24 07:58:05 51°12.72 2°49.636 18.7876 4.449556 32.985824 3.904358
2005-06-24 07:58:09 51°12.711 2°49.614 18.7858 4.449556 32.985824 3.904358
2005-06-24 07:58:15 51°12.698 2°49.582 18.7842 4.449978 32.99046 3.80323
2005-06-24 07:58:19 51°12.688 2°49.556 18.7788 4.450822 33.000873 4.241452
2005-06-24 07:58:25 51°12.675 2°49.522 18.7817 4.451876 33.011899 4.039195
2005-06-24 07:58:30 51°12.665 2°49.496 18.7762 4.452087 33.012509 3.971777
2005-06-24 07:58:35 51°12.652 2°49.464 18.7707 4.453037 33.019243 3.971777
2005-06-24 07:58:39 51°12.645 2°49.444 18.7659 4.453037 33.019243 3.971777
2005-06-24 07:58:45 51°12.63 2°49.407 18.762 4.454513 33.03149 3.870648
2005-06-24 07:58:50 51°12.62 2°49.381 18.7605 4.453353 33.024146 3.904358
2005-06-24 07:58:55 51°12.609 2°49.352 18.7524 4.463478 33.109862 3.80323
2005-06-24 07:58:59 51°12.599 2°49.326 18.7543 4.466853 33.139587 3.735811
2005-06-24 07:59:05 51°12.586 2°49.291 18.7544 4.468224 33.154402 3.76952
2005-06-24 07:59:10 51°12.576 2°49.265 18.7559 4.468224 33.154402 3.76952
2005-06-24 07:59:15 51°12.564 2°49.234 18.7534 4.471494 33.183263 3.702101
2005-06-24 07:59:20 51°12.552 2°49.205 18.7533 4.473392 33.204186 3.735811
2005-06-24 07:59:25 51°12.541 2°49.176 18.7574 4.47508 33.220495 3.735811
2005-06-24 07:59:29 51°12.532 2°49.154 18.7642 4.47624 33.23415 3.76952
2005-06-24 07:59:35 51°12.519 2°49.119 18.7684 4.477927 33.251615 3.735811
2005-06-24 07:59:40 51°12.507 2°49.091 18.7729 4.478138 33.255665 3.634683
2005-06-24 07:59:45 51°12.496 2°49.062 18.7733 4.478138 33.255665 3.634683
2005-06-24 07:59:50 51°12.486 2°49.037 18.7838 4.477822 33.253036 3.702101
2005-06-24 07:59:55 51°12.475 2°49.008 18.7917 4.478877 33.264099 3.600973
2005-06-24 08:00:00 51°12.463 2°48.977 18.806 4.47972 33.268811 3.634683
2005-06-24 08:00:05 51°12.452 2°48.948 18.8172 4.479826 33.269688 3.634683
2005-06-24 08:00:09 51°12.443 2°48.925 18.8294 4.479826 33.269688 3.634683
2005-06-24 08:00:15 51°12.431 2°48.894 18.8451 4.480142 33.269443 3.634683
2005-06-24 08:00:20 51°12.42 2°48.865 18.8575 4.480564 33.269501 3.499845
2005-06-24 08:00:25 51°12.408 2°48.834 18.8694 4.481619 33.275965 3.668392
2005-06-24 08:00:30 51°12.396 2°48.806 18.8777 4.483834 33.289193 3.668392
2005-06-24 08:00:35 51°12.385 2°48.777 18.8846 4.485732 33.29864 3.668392
2005-06-24 08:00:39 51°12.376 2°48.755 18.8905 4.485732 33.29864 3.668392
2005-06-24 08:00:45 51°12.363 2°48.721 18.8937 4.488474 33.311643 3.668392
2005-06-24 08:00:50 51°12.352 2°48.693 18.8964 4.491532 33.326693 3.702101
2005-06-24 08:00:55 51°12.342 2°48.668 18.8976 4.494274 33.339111 3.634683
2005-06-24 08:01:00 51°12.331 2°48.639 18.8941 4.496173 33.343372 3.634683
2005-06-24 08:01:05 51°12.32 2°48.607 18.8807 4.494485 33.317306 3.567264
2005-06-24 08:01:09 51°12.311 2°48.584 18.8534 4.496067 33.321244 3.567264
2005-06-24 08:01:15 51°12.299 2°48.549 18.8331 4.496067 33.321244 3.567264
2005-06-24 08:01:20 51°12.289 2°48.521 18.8183 4.499653 33.344095 3.499845
2005-06-24 08:01:25 51°12.279 2°48.492 18.7914 4.503133 33.366066 3.533554
2005-06-24 08:01:30 51°12.27 2°48.465 18.7831 4.510411 33.422395 3.499845
2005-06-24 08:01:35 51°12.258 2°48.433 18.7649 4.512837 33.439062 3.567264
2005-06-24 08:01:40 51°12.248 2°48.405 18.7513 4.512837 33.439062 3.567264
2005-06-24 08:01:45 51°12.237 2°48.376 18.7426 4.515579 33.462958 3.533554
2005-06-24 08:01:49 51°12.229 2°48.354 18.7302 4.519271 33.501079 3.600973
2005-06-24 08:01:55 51°12.216 2°48.319 18.7295 4.519798 33.516998 3.567264
2005-06-24 08:02:00 51°12.205 2°48.291 18.7201 4.525705 33.584549 3.668392
2005-06-24 08:02:05 51°12.195 2°48.263 18.7191 4.524862 33.596074 3.668392
2005-06-24 08:02:10 51°12.184 2°48.234 18.7091 4.524862 33.596074 3.668392
2005-06-24 08:02:15 51°12.173 2°48.206 18.7086 4.529292 33.646248 3.702101
2005-06-24 08:02:20 51°12.163 2°48.177 18.7041 4.531401 33.678907 3.668392
2005-06-24 08:02:25 51°12.152 2°48.149 18.7031 4.532562 33.703113 3.702101
2005-06-24 08:02:30 51°12.142 2°48.12 18.6966 4.53309 33.717408 3.904358
2005-06-24 08:02:35 51°12.133 2°48.094 18.6934 4.533722 33.730257 3.836939
2005-06-24 08:02:40 51°12.123 2°48.065 18.692 4.533722 33.730257 3.836939
2005-06-24 08:02:45 51°12.112 2°48.033 18.6871 4.534461 33.744576 3.938067
2005-06-24 08:02:49 51°12.104 2°48.01 18.6796 4.534145 33.747776 3.836939
2005-06-24 08:02:55 51°12.092 2°47.978 18.6772 4.534778 33.757721 3.735811
2005-06-24 08:03:00 51°12.082 2°47.949 18.6695 4.534672 33.759178 3.76952
2005-06-24 08:03:05 51°12.071 2°47.917 18.6674 4.534567 33.762388 3.735811
2005-06-24 08:03:09 51°12.063 2°47.894 18.6667 4.534567 33.762388 3.735811
2005-06-24 08:03:15 51°12.052 2°47.862 18.6658 4.534672 33.765605 3.600973
2005-06-24 08:03:19 51°12.044 2°47.839 18.6585 4.534567 33.769986 3.600973
2005-06-24 08:03:25 51°12.031 2°47.801 18.6564 4.5352 33.777601 3.634683
2005-06-24 08:03:30 51°12.023 2°47.774 18.6521 4.534673 33.779051 3.668392
2005-06-24 08:03:35 51°12.013 2°47.745 18.65 4.535833 33.793995 3.600973
2005-06-24 08:03:39 51°12.006 2°47.721 18.6536 4.535833 33.793995 3.600973
2005-06-24 08:03:45 51°11.993 2°47.683 18.6495 4.536677 33.805132 3.466136
2005-06-24 08:03:49 51°11.986 2°47.659 18.6444 4.537099 33.812752 3.499845
2005-06-24 08:03:55 51°11.975 2°47.627 18.6483 4.535095 33.796615 3.499845
2005-06-24 08:04:00 51°11.964 2°47.595 18.6434 4.538048 33.824775 3.533554
2005-06-24 08:04:05 51°11.955 2°47.566 18.6413 4.536255 33.813912 3.567264
2005-06-24 08:04:10 51°11.946 2°47.539 18.6407 4.536255 33.813912 3.567264
2005-06-24 08:04:15 51°11.936 2°47.511 18.6438 4.537521 33.829166 3.533554
2005-06-24 08:04:20 51°11.925 2°47.478 18.6389 4.539525 33.84707 3.499845
2005-06-24 08:04:25 51°11.915 2°47.449 18.6415 4.537626 33.832978 3.499845
2005-06-24 08:04:30 51°11.906 2°47.423 18.6376 4.538365 33.841489 3.432426
2005-06-24 08:04:35 51°11.896 2°47.394 18.6397 4.541529 33.869672 3.365007
2005-06-24 08:04:40 51°11.886 2°47.362 18.6369 4.542478 33.878775 3.331298
2005-06-24 08:04:45 51°11.876 2°47.332 18.6391 4.542478 33.878775 3.331298
2005-06-24 08:04:50 51°11.866 2°47.303 18.6367 4.542689 33.884061 3.263879
2005-06-24 08:04:55 51°11.858 2°47.277 18.634 4.543428 33.891404 3.297589
2005-06-24 08:05:00 51°11.847 2°47.244 18.6387 4.543955 33.895221 3.23017
2005-06-24 08:05:05 51°11.837 2°47.215 18.6393 4.54174 33.87672 3.23017
2005-06-24 08:05:10 51°11.828 2°47.189 18.6328 4.54174 33.87672 3.23017
2005-06-24 08:05:15 51°11.818 2°47.157 18.6388 4.543217 33.889054 3.129042
2005-06-24 08:05:20 51°11.808 2°47.128 18.6323 4.541846 33.878776 3.19646
2005-06-24 08:05:25 51°11.799 2°47.101 18.6315 4.545643 33.911671 3.19646
2005-06-24 08:05:30 51°11.789 2°47.072 18.6343 4.546908 33.922834 3.129042
2005-06-24 08:05:35 51°11.779 2°47.043 18.6273 4.547014 33.92548 3.129042
2005-06-24 08:05:40 51°11.769 2°47.011 18.6272 4.547014 33.92548 3.129042
2005-06-24 08:05:45 51°11.759 2°46.981 18.6279 4.548596 33.937522 3.19646
2005-06-24 08:05:50 51°11.751 2°46.954 18.6183 4.549545 33.946043 3.19646
2005-06-24 08:05:55 51°11.74 2°46.922 18.6208 4.546908 33.924599 3.162751
2005-06-24 08:06:01 51°11.73 2°46.889 18.6132 4.547858 33.933707 3.061623
2005-06-24 08:06:05 51°11.723 2°46.862 18.6187 4.551338 33.963383 3.095332
2005-06-24 08:06:09 51°11.717 2°46.838 18.6148 4.551338 33.963383 3.095332
2005-06-24 08:06:15 51°11.708 2°46.8 18.6151 4.551866 33.970736 2.994204
2005-06-24 08:06:20 51°11.701 2°46.77 18.6089 4.55271 33.979557 3.027913
2005-06-24 08:06:25 51°11.694 2°46.738 18.6095 4.549545 33.953109 2.994204
2005-06-24 08:06:29 51°11.689 2°46.713 18.6047 4.553554 33.989559 3.061623
2005-06-24 08:06:35 51°11.682 2°46.679 18.6029 4.553554 33.991918 3.061623
2005-06-24 08:06:39 51°11.677 2°46.653 18.6021 4.554398 34.000743 3.162751
2005-06-24 08:06:45 51°11.668 2°46.613 18.6021 4.554398 34.000743 3.162751
2005-06-24 08:06:49 51°11.663 2°46.587 18.61 4.554608 34.001916 3.162751
2005-06-24 08:06:55 51°11.655 2°46.553 18.6138 4.552288 33.985464 3.162751
2005-06-24 08:07:00 51°11.648 2°46.52 18.6208 4.555136 34.011637 3.129042
2005-06-24 08:07:05 51°11.641 2°46.488 18.6259 4.55387 34.001643 3.095332
2005-06-24 08:07:10 51°11.634 2°46.46 18.634 4.55387 34.001643 3.095332
2005-06-24 08:07:15 51°11.626 2°46.426 18.6389 4.555769 34.022835 2.960494
2005-06-24 08:07:19 51°11.621 2°46.401 18.6419 4.555242 34.019014 3.027913
2005-06-24 08:07:25 51°11.612 2°46.364 18.6466 4.555874 34.025489 3.061623
2005-06-24 08:07:30 51°11.605 2°46.333 18.6472 4.556824 34.033429 3.027913
2005-06-24 08:07:35 51°11.598 2°46.301 18.6482 4.555452 34.017826 2.994204
2005-06-24 08:07:39 51°11.594 2°46.28 18.6505 4.555452 34.017826 2.994204
2005-06-24 08:07:45 51°11.585 2°46.239 18.6495 4.556402 34.021632 3.027913
2005-06-24 08:07:50 51°11.578 2°46.211 18.6566 4.557878 34.029847 2.994204
2005-06-24 08:07:55 51°11.571 2°46.177 18.6553 4.558406 34.028943 2.994204
2005-06-24 08:08:00 51°11.564 2°46.146 18.6597 4.559144 34.029803 3.129042
2005-06-24 08:08:05 51°11.557 2°46.115 18.6595 4.559777 34.030962 3.129042
2005-06-24 08:08:09 51°11.551 2°46.09 18.6623 4.559777 34.030962 3.129042
2005-06-24 08:08:15 51°11.544 2°46.056 18.6621 4.559882 34.029483 3.162751
2005-06-24 08:08:20 51°11.536 2°46.022 18.6629 4.558194 34.012428 3.162751
2005-06-24 08:08:25 51°11.529 2°45.991 18.665 4.559355 34.019765 3.263879
2005-06-24 08:08:29 51°11.524 2°45.966 18.6671 4.56062 34.029753 3.331298
2005-06-24 08:08:35 51°11.517 2°45.932 18.6609 4.559144 34.013874 3.331298
2005-06-24 08:08:40 51°11.51 2°45.897 18.6614 4.559144 34.013874 3.331298
2005-06-24 08:08:45 51°11.504 2°45.865 18.6575 4.557561 33.999475 3.23017
2005-06-24 08:08:49 51°11.499 2°45.84 18.6562 4.557456 33.996826 3.331298
2005-06-24 08:08:55 51°11.493 2°45.802 18.6526 4.556823 33.989182 3.263879
2005-06-24 08:09:00 51°11.487 2°45.77 18.6474 4.560409 34.017374 3.23017
2005-06-24 08:09:05 51°11.481 2°45.738 18.6415 4.558089 33.997988 3.129042
2005-06-24 08:09:10 51°11.475 2°45.707 18.6374 4.558089 33.997988 3.129042
2005-06-24 08:09:15 51°11.47 2°45.678 18.6334 4.559038 34.005329 3.095332
2005-06-24 08:09:20 51°11.463 2°45.644 18.6294 4.556612 33.986831 3.095332
2005-06-24 08:09:25 51°11.457 2°45.612 18.6285 4.553448 33.95981 3.061623
2005-06-24 08:09:29 51°11.452 2°45.587 18.6261 4.553553 33.964223 3.162751
2005-06-24 08:09:35 51°11.446 2°45.552 18.6183 4.558722 34.009759 3.061623
2005-06-24 08:09:40 51°11.44 2°45.52 18.6175 4.558722 34.009759 3.061623
2005-06-24 08:09:45 51°11.434 2°45.485 18.6176 4.550916 33.948081 3.129042
2005-06-24 08:09:49 51°11.429 2°45.46 18.6081 4.549334 33.938395 3.129042
2005-06-24 08:09:55 51°11.422 2°45.425 18.6042 4.559144 34.025672 3.129042
2005-06-24 08:10:00 51°11.416 2°45.391 18.6024 4.559566 34.03215 3.027913
2005-06-24 08:10:05 51°11.41 2°45.359 18.6013 4.560515 34.042448 2.960494
2005-06-24 08:10:10 51°11.404 2°45.331 18.5955 4.559038 34.033644 3.027913
2005-06-24 08:10:15 51°11.398 2°45.296 18.5891 4.559038 34.033644 3.027913
2005-06-24 08:10:20 51°11.393 2°45.267 18.584 4.55946 34.040715 3.027913
2005-06-24 08:10:25 51°11.386 2°45.233 18.5799 4.558828 34.038376 3.061623
2005-06-24 08:10:30 51°11.381 2°45.204 18.5801 4.558933 34.041621 3.027913
2005-06-24 08:10:35 51°11.375 2°45.172 18.5801 4.559461 34.050168 2.926785
2005-06-24 08:10:39 51°11.37 2°45.147 18.57 4.559461 34.050168 2.926785
2005-06-24 08:10:45 51°11.362 2°45.106 18.5708 4.556718 34.031365 2.893076
2005-06-24 08:10:49 51°11.358 2°45.081 18.5673 4.556613 34.034028 2.893076
2005-06-24 08:10:55 51°11.351 2°45.046 18.5645 4.556507 34.037873 2.893076
2005-06-24 08:11:00 51°11.345 2°45.011 18.5638 4.55809 34.053476 2.994204
2005-06-24 08:11:05 51°11.339 2°44.979 18.5564 4.556613 34.046441 2.994204
2005-06-24 08:11:10 51°11.334 2°44.951 18.5521 4.556613 34.046441 2.994204
2005-06-24 08:11:15 51°11.328 2°44.919 18.5498 4.55925 34.070877 2.893076
2005-06-24 08:11:20 51°11.321 2°44.885 18.5459 4.557246 34.05647 2.926785
2005-06-24 08:11:25 51°11.315 2°44.853 18.5409 4.554715 34.038831 2.893076
2005-06-24 08:11:30 51°11.309 2°44.821 18.539 4.55482 34.042079 2.893076
2005-06-24 08:11:35 51°11.304 2°44.793 18.5371 4.556508 34.059165 2.893076
2005-06-24 08:11:39 51°11.298 2°44.764 18.5329 4.556508 34.059165 2.893076
2005-06-24 08:11:45 51°11.291 2°44.726 18.519 4.55482 34.04622 2.960494
2005-06-24 08:11:50 51°11.286 2°44.698 18.5171 4.55577 34.059495 2.960494
2005-06-24 08:11:55 51°11.28 2°44.663 18.5093 4.557457 34.078365 2.825657
2005-06-24 08:11:59 51°11.276 2°44.641 18.5045 4.554188 34.05335 2.893076
2005-06-24 08:12:05 51°11.269 2°44.6 18.503 4.555242 34.067514 2.893076
2005-06-24 08:12:10 51°11.263 2°44.568 18.499 4.555242 34.067514 2.893076
2005-06-24 08:12:15 51°11.257 2°44.536 18.491 4.553871 34.057805 2.825657
2005-06-24 08:12:20 51°11.251 2°44.505 18.4883 4.554504 34.066661 2.791947
2005-06-24 08:12:25 51°11.245 2°44.473 18.4782 4.55345 34.064935 2.724529
2005-06-24 08:12:30 51°11.239 2°44.441 18.478 4.555243 34.083517 2.724529
2005-06-24 08:12:35 51°11.233 2°44.412 18.4772 4.555032 34.08768 2.859366
2005-06-24 08:12:40 51°11.227 2°44.378 18.4745 4.555032 34.08768 2.859366
2005-06-24 08:12:45 51°11.221 2°44.349 18.4736 4.553977 34.082992 2.825657
2005-06-24 08:12:49 51°11.216 2°44.321 18.4702 4.555032 34.095988 2.791947
2005-06-24 08:12:55 51°11.21 2°44.286 18.467 4.554505 34.097502 2.724529
2005-06-24 08:13:00 51°11.203 2°44.251 18.4674 4.554294 34.10167 2.791947
2005-06-24 08:13:05 51°11.198 2°44.219 18.464 4.553239 34.097575 2.690819
2005-06-24 08:13:09 51°11.193 2°44.194 18.4644 4.553239 34.097575 2.690819
2005-06-24 08:13:15 51°11.186 2°44.159 18.4689 4.553661 34.104678 2.724529
2005-06-24 08:13:20 51°11.18 2°44.124 18.4631 4.552079 34.093188 2.690819
2005-06-24 08:13:25 51°11.174 2°44.096 18.4662 4.554505 34.115322 2.589691
2005-06-24 08:13:30 51°11.168 2°44.064 18.4642 4.553345 34.109748 2.555982
2005-06-24 08:13:35 51°11.162 2°44.029 18.4714 4.551763 34.097662 2.6234
2005-06-24 08:13:40 51°11.156 2°43.998 18.4692 4.551763 34.097662 2.6234
2005-06-24 08:13:45 51°11.15 2°43.966 18.4702 4.551974 34.101809 2.555982
2005-06-24 08:13:50 51°11.145 2°43.938 18.4709 4.553134 34.114517 2.589691
2005-06-24 08:13:55 51°11.139 2°43.906 18.4728 4.551341 34.097687 2.589691
2005-06-24 08:13:59 51°11.133 2°43.877 18.4744 4.553134 34.115112 2.724529
2005-06-24 08:14:05 51°11.126 2°43.839 18.4742 4.551235 34.099179 2.690819
2005-06-24 08:14:10 51°11.12 2°43.808 18.474 4.551235 34.099179 2.690819
2005-06-24 08:14:15 51°11.115 2°43.779 18.4703 4.555033 34.130451 2.65711
2005-06-24 08:14:19 51°11.109 2°43.751 18.4745 4.555033 34.130451 2.791947
2005-06-24 08:14:25 51°11.102 2°43.713 18.4721 4.555454 34.131612 2.724529
2005-06-24 08:14:30 51°11.096 2°43.681 18.4758 4.555138 34.128362 2.758238
2005-06-24 08:14:35 51°11.091 2°43.653 18.4736 4.555349 34.129537 2.724529
2005-06-24 08:14:40 51°11.085 2°43.62 18.4675 4.555349 34.129537 2.724529
2005-06-24 08:14:45 51°11.078 2°43.585 18.4666 4.555349 34.128943 2.6234
2005-06-24 08:14:49 51°11.073 2°43.56 18.4663 4.556087 34.134544 2.589691
2005-06-24 08:14:55 51°11.067 2°43.525 18.4647 4.556087 34.135139 2.6234
2005-06-24 08:14:59 51°11.061 2°43.496 18.4583 4.556193 34.136024 2.65711
2005-06-24 08:15:05 51°11.054 2°43.458 18.4524 4.556615 34.138375 2.65711
2005-06-24 08:15:09 51°11.05 2°43.433 18.4481 4.556615 34.138375 2.65711
2005-06-24 08:15:15 51°11.043 2°43.398 18.4392 4.55672 34.139855 2.555982
2005-06-24 08:15:20 51°11.038 2°43.366 18.4432 4.557037 34.144295 2.690819
2005-06-24 08:15:25 51°11.031 2°43.332 18.435 4.558091 34.152552 2.690819
2005-06-24 08:15:30 51°11.026 2°43.303 18.4389 4.557459 34.150812 2.724529
2005-06-24 08:15:35 51°11.019 2°43.268 18.4358 4.557986 34.158215 2.690819
2005-06-24 08:15:40 51°11.014 2°43.237 18.4228 4.558092 34.160292 2.724529
2005-06-24 08:15:45 51°11.008 2°43.205 18.4202 4.558092 34.160292 2.724529
2005-06-24 08:15:50 51°11.002 2°43.173 18.4191 4.557881 34.162094 2.825657
2005-06-24 08:15:55 51°10.997 2°43.145 18.4192 4.558303 34.171594 2.893076
2005-06-24 08:15:59 51°10.991 2°43.116 18.4196 4.558303 34.174573 2.724529
2005-06-24 08:16:05 51°10.984 2°43.078 18.4218 4.558303 34.176957 2.690819
2005-06-24 08:16:09 51°10.98 2°43.053 18.426 4.558303 34.176957 2.690819
2005-06-24 08:16:15 51°10.973 2°43.014 18.4266 4.557564 34.173141 2.825657
2005-06-24 08:16:19 51°10.969 2°42.992 18.4308 4.558197 34.180841 2.65711
2005-06-24 08:16:25 51°10.962 2°42.951 18.4274 4.55767 34.181777 2.589691
2005-06-24 08:16:30 51°10.957 2°42.922 18.4316 4.557565 34.185663 2.555982
2005-06-24 08:16:35 51°10.951 2°42.887 18.4309 4.557459 34.186566 2.555982
2005-06-24 08:16:39 51°10.947 2°42.861 18.4285 4.557459 34.186566 2.555982
2005-06-24 08:16:45 51°10.941 2°42.823 18.4333 4.557354 34.186873 2.488563
2005-06-24 08:16:49 51°10.937 2°42.798 18.4326 4.557143 34.185101 2.522272
2005-06-24 08:16:55 51°10.931 2°42.762 18.4366 4.557248 34.184794 2.522272
2005-06-24 08:17:00 51°10.926 2°42.728 18.4301 4.557565 34.185066 2.522272
2005-06-24 08:17:05 51°10.921 2°42.699 18.4276 4.558092 34.188304 2.589691
2005-06-24 08:17:10 51°10.916 2°42.667 18.4285 4.557881 34.185935 2.589691
2005-06-24 08:17:15 51°10.911 2°42.635 18.4241 4.557881 34.185935 2.589691
2005-06-24 08:17:21 51°10.905 2°42.597 18.4262 4.557987 34.186225 2.589691
2005-06-24 08:17:25 51°10.9 2°42.568 18.4241 4.558514 34.188866 2.589691
2005-06-24 08:17:29 51°10.896 2°42.543 18.4207 4.558619 34.188559 2.690819
2005-06-24 08:17:35 51°10.89 2°42.504 18.4177 4.559252 34.192683 2.65711
2005-06-24 08:17:40 51°10.884 2°42.473 18.4184 4.558936 34.191814 2.690819
2005-06-24 08:17:45 51°10.879 2°42.441 18.4128 4.558936 34.191814 2.690819
2005-06-24 08:17:50 51°10.874 2°42.412 18.4147 4.558936 34.193007 2.724529
2005-06-24 08:17:55 51°10.869 2°42.377 18.4149 4.55883 34.194508 2.724529
2005-06-24 08:18:00 51°10.864 2°42.346 18.4111 4.558514 34.192446 2.724529
2005-06-24 08:18:05 51°10.859 2°42.314 18.4148 4.55883 34.196895 2.724529
2005-06-24 08:18:10 51°10.854 2°42.285 18.4074 4.55883 34.196895 2.724529
2005-06-24 08:18:15 51°10.849 2°42.253 18.4066 4.558303 34.193657 2.690819
2005-06-24 08:18:21 51°10.842 2°42.215 18.4063 4.557987 34.192788 2.758238
2005-06-24 08:18:25 51°10.838 2°42.187 18.404 4.558409 34.199318 2.791947
2005-06-24 08:18:30 51°10.833 2°42.158 18.4003 4.557248 34.190164 2.690819
2005-06-24 08:18:35 51°10.828 2°42.126 18.3957 4.557881 34.196079 2.65711
2005-06-24 08:18:39 51°10.824 2°42.101 18.3945 4.557881 34.196079 2.65711
2005-06-24 08:18:45 51°10.817 2°42.06 18.3931 4.55767 34.1955 2.6234
2005-06-24 08:18:50 51°10.812 2°42.028 18.3872 4.557565 34.194614 2.589691
2005-06-24 08:18:54 51°10.808 2°42.002 18.3823 4.557881 34.201452 2.555982
2005-06-24 08:19:00 51°10.802 2°41.964 18.3792 4.557459 34.1991 2.65711
2005-06-24 08:19:05 51°10.797 2°41.933 18.3808 4.557249 34.199715 2.589691
2005-06-24 08:19:10 51°10.792 2°41.901 18.3761 4.557881 34.206827 2.6234
2005-06-24 08:19:15 51°10.787 2°41.868 18.3765 4.557881 34.206827 2.6234
2005-06-24 08:19:19 51°10.783 2°41.847 18.3749 4.557776 34.20833 2.6234
2005-06-24 08:19:25 51°10.777 2°41.805 18.3763 4.557354 34.206575 2.724529
2005-06-24 08:19:29 51°10.773 2°41.779 18.3734 4.557038 34.209889 2.65711
2005-06-24 08:19:35 51°10.767 2°41.744 18.3734 4.556721 34.210216 2.690819
2005-06-24 08:19:39 51°10.763 2°41.719 18.3697 4.556721 34.210216 2.690819
2005-06-24 08:19:45 51°10.756 2°41.678 18.3721 4.556616 34.21172 2.555982
2005-06-24 08:19:50 51°10.751 2°41.646 18.3631 4.556194 34.210562 2.555982
2005-06-24 08:19:55 51°10.747 2°41.617 18.3631 4.556405 34.211739 2.589691
2005-06-24 08:20:00 51°10.742 2°41.585 18.3546 4.556194 34.212355 2.555982
2005-06-24 08:20:05 51°10.736 2°41.551 18.3541 4.556405 34.215326 2.555982
2005-06-24 08:20:10 51°10.731 2°41.519 18.3503 4.556405 34.215326 2.555982
2005-06-24 08:20:15 51°10.726 2°41.49 18.346 4.556405 34.217119 2.589691
2005-06-24 08:20:19 51°10.722 2°41.461 18.3438 4.556089 34.216251 2.791947
2005-06-24 08:20:25 51°10.716 2°41.424 18.3463 4.556194 34.217737 2.859366
2005-06-24 08:20:30 51°10.711 2°41.395 18.3446 4.555878 34.217467 2.690819
2005-06-24 08:20:35 51°10.707 2°41.363 18.3406 4.555772 34.221365 2.6234
2005-06-24 08:20:40 51°10.701 2°41.328 18.3409 4.555772 34.221365 2.6234
2005-06-24 08:20:45 51°10.696 2°41.296 18.3415 4.555983 34.225533 2.65711
2005-06-24 08:20:49 51°10.692 2°41.271 18.3401 4.555984 34.227926 2.522272
2005-06-24 08:20:55 51°10.687 2°41.236 18.3311 4.555351 34.227388 2.488563
2005-06-24 08:21:00 51°10.682 2°41.204 18.3328 4.555034 34.226521 2.454853
2005-06-24 08:21:05 51°10.676 2°41.17 18.3303 4.55514 34.229803 2.488563
2005-06-24 08:21:10 51°10.671 2°41.141 18.3297 4.55514 34.229803 2.488563
2005-06-24 08:21:15 51°10.666 2°41.109 18.3263 4.555456 34.233065 2.522272
2005-06-24 08:21:20 51°10.66 2°41.075 18.3248 4.555351 34.234572 2.387435
2005-06-24 08:21:25 51°10.655 2°41.043 18.3289 4.555562 34.236947 2.454853
2005-06-24 08:21:30 51°10.65 2°41.011 18.3254 4.555351 34.236968 2.387435
2005-06-24 08:21:35 51°10.645 2°40.979 18.3222 4.554824 34.235523 2.454853
2005-06-24 08:21:40 51°10.64 2°40.948 18.3224 4.554824 34.235523 2.454853
2005-06-24 08:21:45 51°10.634 2°40.916 18.3221 4.555456 34.24145 2.522272
2005-06-24 08:21:50 51°10.63 2°40.887 18.3276 4.554824 34.239117 2.589691
2005-06-24 08:21:54 51°10.625 2°40.859 18.3213 4.554929 34.241203 2.758238
2005-06-24 08:22:01 51°10.619 2°40.818 18.3262 4.554718 34.241823 2.690819
2005-06-24 08:22:05 51°10.614 2°40.789 18.3229 4.554613 34.240935 2.690819
2005-06-24 08:22:09 51°10.61 2°40.764 18.3219 4.554613 34.240935 2.690819
2005-06-24 08:22:15 51°10.604 2°40.725 18.325 4.554718 34.242423 2.65711
2005-06-24 08:22:19 51°10.601 2°40.704 18.3232 4.554191 34.240378 2.522272
2005-06-24 08:22:25 51°10.595 2°40.662 18.3241 4.554613 34.24513 2.387435
2005-06-24 08:22:29 51°10.591 2°40.637 18.3174 4.554296 34.243064 2.353725
2005-06-24 08:22:35 51°10.585 2°40.602 18.3156 4.554613 34.245729 2.454853
2005-06-24 08:22:39 51°10.581 2°40.573 18.3191 4.554507 34.243642 2.522272
2005-06-24 08:22:45 51°10.575 2°40.536 18.3153 4.554507 34.243642 2.522272
2005-06-24 08:22:50 51°10.57 2°40.504 18.3176 4.554296 34.242465 2.454853
2005-06-24 08:22:55 51°10.565 2°40.472 18.3138 4.554718 34.245419 2.522272
2005-06-24 08:22:59 51°10.56 2°40.447 18.3186 4.555035 34.248084 2.589691
2005-06-24 08:23:05 51°10.554 2°40.41 18.3246 4.554191 34.242775 2.589691
2005-06-24 08:23:10 51°10.549 2°40.378 18.3274 4.554191 34.242775 2.589691
2005-06-24 08:23:15 51°10.545 2°40.35 18.3204 4.554824 34.249904 2.522272
2005-06-24 08:23:19 51°10.54 2°40.321 18.3226 4.554296 34.246061 2.421144
2005-06-24 08:23:25 51°10.535 2°40.284 18.3254 4.554718 34.249615 2.454853
2005-06-24 08:23:30 51°10.53 2°40.252 18.3252 4.554402 34.24635 2.488563
2005-06-24 08:23:35 51°10.525 2°40.221 18.326 4.555035 34.25348 2.65711
2005-06-24 08:23:39 51°10.521 2°40.195 18.3266 4.555035 34.25348 2.65711
2005-06-24 08:23:45 51°10.515 2°40.158 18.3277 4.554929 34.252591 2.589691
2005-06-24 08:23:49 51°10.511 2°40.133 18.3308 4.554085 34.243685 2.589691
2005-06-24 08:23:55 51°10.505 2°40.095 18.3267 4.55514 34.25137 2.522272
2005-06-24 08:23:59 51°10.501 2°40.07 18.3263 4.555246 34.251659 2.589691
2005-06-24 08:24:05 51°10.495 2°40.032 18.324 4.555562 34.253125 2.589691
2005-06-24 08:24:09 51°10.491 2°40.007 18.3258 4.555562 34.253125 2.589691
2005-06-24 08:24:15 51°10.485 2°39.969 18.3262 4.555457 34.252836 2.6234
2005-06-24 08:24:19 51°10.482 2°39.944 18.327 4.555351 34.251349 2.555982
2005-06-24 08:24:25 51°10.476 2°39.907 18.3251 4.555668 34.252215 2.488563
2005-06-24 08:24:29 51°10.472 2°39.881 18.3277 4.555668 34.251616 2.522272
2005-06-24 08:24:35 51°10.467 2°39.847 18.3291 4.555351 34.248951 2.488563
2005-06-24 08:24:40 51°10.461 2°39.813 18.3262 4.555351 34.24955 2.488563
2005-06-24 08:24:45 51°10.456 2°39.781 18.327 4.555351 34.24955 2.488563
2005-06-24 08:24:50 51°10.452 2°39.753 18.3248 4.556195 34.256657 2.421144
2005-06-24 08:24:55 51°10.447 2°39.721 18.3234 4.555879 34.254591 2.488563
2005-06-24 08:25:01 51°10.441 2°39.684 18.3275 4.555984 34.25488 2.421144
2005-06-24 08:25:05 51°10.437 2°39.655 18.3249 4.555773 34.254902 2.387435
2005-06-24 08:25:10 51°10.432 2°39.624 18.3245 4.555773 34.254902 2.387435
2005-06-24 08:25:15 51°10.427 2°39.595 18.3239 4.556406 34.258434 2.387435
2005-06-24 08:25:19 51°10.423 2°39.567 18.3232 4.5563 34.255747 2.387435
2005-06-24 08:25:25 51°10.417 2°39.529 18.3216 4.556722 34.261099 2.387435
2005-06-24 08:25:30 51°10.412 2°39.498 18.3194 4.556511 34.259922 2.522272
2005-06-24 08:25:35 51°10.407 2°39.47 18.3173 4.556722 34.262898 2.454853
2005-06-24 08:25:40 51°10.402 2°39.438 18.3164 4.556722 34.262898 2.454853
2005-06-24 08:25:45 51°10.396 2°39.404 18.3209 4.556933 34.264075 2.488563
2005-06-24 08:25:49 51°10.392 2°39.378 18.3148 4.556933 34.265274 2.488563
2005-06-24 08:25:55 51°10.386 2°39.34 18.3198 4.556511 34.26172 2.421144
2005-06-24 08:26:00 51°10.382 2°39.309 18.3131 4.557461 34.269117 2.387435
2005-06-24 08:26:05 51°10.377 2°39.278 18.3158 4.55725 34.268539 2.353725
2005-06-24 08:26:10 51°10.372 2°39.249 18.3116 4.557672 34.273893 2.454853
2005-06-24 08:26:15 51°10.367 2°39.218 18.3147 4.557672 34.273893 2.454853
2005-06-24 08:26:19 51°10.363 2°39.189 18.3138 4.55725 34.272139 2.421144
2005-06-24 08:26:25 51°10.357 2°39.152 18.3178 4.557566 34.274204 2.522272
2005-06-24 08:26:30 51°10.353 2°39.123 18.3142 4.557988 34.278359 2.488563
2005-06-24 08:26:35 51°10.349 2°39.092 18.3159 4.55841 34.281913 2.454853
2005-06-24 08:26:40 51°10.344 2°39.057 18.3123 4.55841 34.283113 2.353725
2005-06-24 08:26:45 51°10.34 2°39.025 18.3138 4.55841 34.283113 2.353725
2005-06-24 08:26:50 51°10.336 2°38.997 18.3111 4.558727 34.286379 2.488563
2005-06-24 08:26:55 51°10.332 2°38.965 18.307 4.558516 34.285803 2.387435
2005-06-24 08:27:00 51°10.327 2°38.93 18.3123 4.55957 34.293489 2.320016
2005-06-24 08:27:05 51°10.322 2°38.899 18.3087 4.559465 34.293801 2.286306
2005-06-24 08:27:10 51°10.318 2°38.867 18.3086 4.559465 34.293801 2.286306
2005-06-24 08:27:15 51°10.314 2°38.839 18.3101 4.559465 34.293801 2.320016
2005-06-24 08:27:20 51°10.309 2°38.804 18.3136 4.559676 34.294378 2.320016
2005-06-24 08:27:25 51°10.305 2°38.772 18.3117 4.559887 34.299157 2.353725
2005-06-24 08:27:29 51°10.301 2°38.747 18.3108 4.560098 34.299133 2.353725
2005-06-24 08:27:35 51°10.296 2°38.712 18.3117 4.559887 34.300358 2.286306
2005-06-24 08:27:40 51°10.291 2°38.677 18.3113 4.559887 34.300358 2.286306
2005-06-24 08:27:45 51°10.287 2°38.646 18.3155 4.559887 34.300959 2.320016
2005-06-24 08:27:49 51°10.284 2°38.62 18.3124 4.560203 34.302424 2.320016
2005-06-24 08:27:55 51°10.278 2°38.582 18.3145 4.559992 34.302448 2.252597
2005-06-24 08:27:58 51°10.276 2°38.563 18.3141 4.560414 34.305403 2.218888
2005-06-24 08:28:05 51°10.27 2°38.519 18.3158 4.560309 34.303914 2.320016
2005-06-24 08:28:10 51°10.266 2°38.49 18.3153 4.560836 34.308358 2.353725
2005-06-24 08:28:15 51°10.262 2°38.458 18.3136 4.560836 34.308358 2.353725
2005-06-24 08:28:21 51°10.257 2°38.42 18.3108 4.56052 34.305091 2.320016
2005-06-24 08:28:25 51°10.252 2°38.392 18.3139 4.561047 34.310136 2.218888
2005-06-24 08:28:29 51°10.249 2°38.366 18.3121 4.560942 34.307445 2.252597
2005-06-24 08:28:35 51°10.244 2°38.331 18.3117 4.560836 34.306556 2.286306
2005-06-24 08:28:39 51°10.241 2°38.306 18.3112 4.560836 34.306556 2.286306
2005-06-24 08:28:45 51°10.235 2°38.265 18.3095 4.561364 34.309798 2.387435
2005-06-24 08:28:49 51°10.231 2°38.239 18.3067 4.561364 34.309798 2.320016
2005-06-24 08:28:55 51°10.227 2°38.204 18.3008 4.56168 34.313666 2.320016
2005-06-24 08:29:00 51°10.222 2°38.169 18.3001 4.561785 34.315156 2.320016
2005-06-24 08:29:05 51°10.218 2°38.137 18.2978 4.562207 34.318111 2.320016
2005-06-24 08:29:10 51°10.214 2°38.108 18.2957 4.562207 34.318111 2.320016
2005-06-24 08:29:15 51°10.21 2°38.076 18.2928 4.561891 34.315444 2.252597
2005-06-24 08:29:19 51°10.206 2°38.047 18.2922 4.562207 34.318711 2.252597
2005-06-24 08:29:25 51°10.2 2°38.009 18.2855 4.562207 34.319913 2.218888
2005-06-24 08:29:30 51°10.197 2°37.98 18.2828 4.562524 34.324984 2.218888
2005-06-24 08:29:35 51°10.192 2°37.949 18.2777 4.562735 34.328565 2.151469
2005-06-24 08:29:40 51°10.188 2°37.914 18.269 4.562629 34.32948 2.151469
2005-06-24 08:29:45 51°10.183 2°37.882 18.2681 4.562629 34.32948 2.151469
2005-06-24 08:29:50 51°10.179 2°37.85 18.265 4.562313 34.329217 2.185178
2005-06-24 08:29:55 51°10.175 2°37.821 18.2625 4.56284 34.33667 2.252597
2005-06-24 08:29:59 51°10.172 2°37.796 18.2492 4.562102 34.33225 2.252597
2005-06-24 08:30:05 51°10.166 2°37.754 18.25 4.561997 34.333766 2.252597
2005-06-24 08:30:09 51°10.163 2°37.729 18.2398 4.561575 34.33442 2.353725
2005-06-24 08:30:15 51°10.157 2°37.691 18.233 4.561575 34.33442 2.353725
2005-06-24 08:30:19 51°10.154 2°37.668 18.2332 4.561469 34.336539 2.252597
2005-06-24 08:30:25 51°10.148 2°37.627 18.227 4.561364 34.341667 2.320016
2005-06-24 08:30:29 51°10.144 2°37.602 18.2202 4.561153 34.344101 2.218888
2005-06-24 08:30:35 51°10.14 2°37.566 18.2214 4.560415 34.341485 2.185178
2005-06-24 08:30:40 51°10.135 2°37.531 18.2148 4.560415 34.341485 2.185178
2005-06-24 08:30:45 51°10.131 2°37.502 18.2087 4.560099 34.34544 2.151469
2005-06-24 08:30:50 51°10.126 2°37.47 18.2044 4.560099 34.348451 2.252597
2005-06-24 08:30:55 51°10.122 2°37.438 18.1969 4.558939 34.346492 2.286306
2005-06-24 08:31:00 51°10.117 2°37.403 18.1935 4.559044 34.352203 2.454853
2005-06-24 08:31:05 51°10.113 2°37.371 18.1941 4.558411 34.350477 2.353725
2005-06-24 08:31:10 51°10.109 2°37.343 18.1844 4.558411 34.350477 2.353725
2005-06-24 08:31:15 51°10.104 2°37.31 18.1791 4.557779 34.351163 2.320016
2005-06-24 08:31:20 51°10.099 2°37.276 18.177 4.557568 34.352396 2.320016
2005-06-24 08:31:25 51°10.094 2°37.244 18.1755 4.55704 34.351561 2.387435
2005-06-24 08:31:30 51°10.09 2°37.215 18.1689 4.556619 34.353426 2.421144
2005-06-24 08:31:35 51°10.085 2°37.18 18.1649 4.555669 34.35144 2.320016
2005-06-24 08:31:39 51°10.082 2°37.158 18.1686 4.555458 34.354485 2.320016
2005-06-24 08:31:45 51°10.076 2°37.116 18.1608 4.555458 34.354485 2.320016
2005-06-24 08:31:49 51°10.073 2°37.09 18.1592 4.555459 34.357503 2.320016
2005-06-24 08:31:54 51°10.068 2°37.058 18.1607 4.554826 34.357588 2.218888
2005-06-24 08:32:01 51°10.063 2°37.017 18.1632 4.554193 34.357673 2.218888
2005-06-24 08:32:05 51°10.059 2°36.988 18.1574 4.554509 34.360951 2.185178
2005-06-24 08:32:09 51°10.056 2°36.963 18.1583 4.553982 34.361325 2.218888
2005-06-24 08:32:15 51°10.05 2°36.924 18.1608 4.553982 34.361325 2.218888
2005-06-24 08:32:19 51°10.047 2°36.898 18.1598 4.553138 34.356608 2.218888
2005-06-24 08:32:25 51°10.042 2°36.861 18.1648 4.552506 34.354882 2.151469
2005-06-24 08:32:30 51°10.038 2°36.832 18.1708 4.552717 34.359082 2.117759
2005-06-24 08:32:35 51°10.033 2°36.797 18.1685 4.552295 34.357327 2.117759
2005-06-24 08:32:39 51°10.029 2°36.775 18.1761 4.552295 34.357327 2.117759
2005-06-24 08:32:45 51°10.024 2°36.734 18.1796 4.551662 34.351977 2.117759
2005-06-24 08:32:50 51°10.019 2°36.702 18.1852 4.552295 34.35914 2.252597
2005-06-24 08:32:55 51°10.015 2°36.67 18.1896 4.552295 34.359744 2.488563
2005-06-24 08:32:59 51°10.011 2°36.645 18.1952 4.551451 34.353213 2.252597
2005-06-24 08:33:05 51°10.006 2°36.607 18.196 4.551451 34.350797 2.353725
2005-06-24 08:33:10 51°10.002 2°36.578 18.1987 4.551451 34.350797 2.353725
2005-06-24 08:33:15 51°10 2°36.542 18.2077 4.552189 34.354019 2.185178
2005-06-24 08:33:20 51°9.998 2°36.51 18.214 4.552084 34.35192 2.252597
2005-06-24 08:33:25 51°9.998 2°36.478 18.2133 4.552716 34.355458 2.185178
2005-06-24 08:33:30 51°9.998 2°36.449 18.2157 4.552189 34.345566 2.387435
2005-06-24 08:33:35 51°9.999 2°36.417 18.2122 4.553666 34.35382 2.387435
2005-06-24 08:33:40 51°10 2°36.382 18.213 4.553771 34.349279 2.252597
2005-06-24 08:33:45 51°10.001 2°36.349 18.2121 4.553771 34.349279 2.252597
2005-06-24 08:33:50 51°10.003 2°36.317 18.2128 4.553876 34.347756 2.117759
2005-06-24 08:33:55 51°10.005 2°36.288 18.2135 4.554404 34.346781 2.117759
2005-06-24 08:34:00 51°10.007 2°36.256 18.2101 4.554826 34.346122 2.151469
2005-06-24 08:34:05 51°10.009 2°36.221 18.2096 4.555353 34.345148 2.117759
2005-06-24 08:34:09 51°10.01 2°36.195 18.2107 4.555353 34.345148 2.117759
2005-06-24 08:34:15 51°10.013 2°36.156 18.2103 4.554931 34.340379 2.08405
2005-06-24 08:34:20 51°10.015 2°36.125 18.2123 4.555142 34.341558 2.050341
2005-06-24 08:34:25 51°10.017 2°36.093 18.2136 4.555247 34.342448 2.08405
2005-06-24 08:34:29 51°10.018 2°36.067 18.2125 4.555775 34.347506 2.08405
2005-06-24 08:34:35 51°10.02 2°36.032 18.2155 4.556091 34.350178 2.117759
2005-06-24 08:34:39 51°10.022 2°36.003 18.2189 4.556091 34.350178 2.117759
2005-06-24 08:34:45 51°10.025 2°35.966 18.2209 4.55588 34.350206 2.050341
2005-06-24 08:34:49 51°10.029 2°35.942 18.2217 4.554931 34.342188 2.08405
2005-06-24 08:34:55 51°10.034 2°35.908 18.2292 4.556197 34.352275 2.016631
2005-06-24 08:34:59 51°10.038 2°35.885 18.2389 4.555986 34.350494 2.050341
2005-06-24 08:35:05 51°10.046 2°35.846 18.2494 4.556408 34.352851 2.016631
2005-06-24 08:35:10 51°10.052 2°35.817 18.2574 4.556408 34.352851 2.185178
2005-06-24 08:35:15 51°10.06 2°35.789 18.2642 4.556408 34.352851 2.185178
2005-06-24 08:35:19 51°10.067 2°35.767 18.2628 4.556091 34.348369 2.286306
2005-06-24 08:35:25 51°10.078 2°35.736 18.2664 4.555986 34.344463 2.117759
2005-06-24 08:35:30 51°10.088 2°35.714 18.2656 4.557251 34.352136 2.08405
2005-06-24 08:35:35 51°10.1 2°35.688 18.2738 4.557251 34.349121 2.08405
2005-06-24 08:35:39 51°10.11 2°35.67 18.2802 4.557251 34.349121 2.08405
2005-06-24 08:35:45 51°10.124 2°35.643 18.276 4.557251 34.343093 2.08405
2005-06-24 08:35:50 51°10.136 2°35.623 18.2701 4.558411 34.343848 2.016631
2005-06-24 08:35:55 51°10.149 2°35.603 18.2324 4.558728 34.341699 2.050341
2005-06-24 08:35:59 51°10.159 2°35.592 18.1842 4.559888 34.344262 2.016631
2005-06-24 08:36:05 51°10.178 2°35.571 18.1416 4.559466 34.338293 2.050341
2005-06-24 08:36:09 51°10.19 2°35.56 18.067 4.559466 34.338293 2.050341
2005-06-24 08:36:15 51°10.209 2°35.545 18.0367 4.560731 34.345961 1.949212
2005-06-24 08:36:20 51°10.224 2°35.534 17.9902 4.560942 34.343526 1.982922
2005-06-24 08:36:25 51°10.24 2°35.525 17.977 4.561575 34.345252 1.915503
2005-06-24 08:36:30 51°10.257 2°35.517 17.9505 4.561681 34.34855 1.949212
2005-06-24 08:36:35 51°10.274 2°35.512 17.9445 4.560732 34.357407 1.881794
2005-06-24 08:36:40 51°10.29 2°35.51 17.9246 4.560732 34.357407 1.881794
2005-06-24 08:36:45 51°10.307 2°35.509 17.8977 4.559361 34.368141 1.982922
2005-06-24 08:36:50 51°10.324 2°35.51 17.892 4.557146 34.383238 1.949212
2005-06-24 08:36:55 51°10.339 2°35.512 17.9107 4.553244 34.391963 1.915503
2005-06-24 08:37:00 51°10.357 2°35.517 17.8857 4.549659 34.399765 1.949212
2005-06-24 08:37:05 51°10.373 2°35.524 17.9003 4.545651 34.403412 1.848084
2005-06-24 08:37:09 51°10.385 2°35.532 17.8891 4.542171 34.404868 1.949212
2005-06-24 08:37:15 51°10.403 2°35.544 17.9002 4.542171 34.404868 1.949212
2005-06-24 08:37:20 51°10.417 2°35.555 17.8838 4.539324 34.402584 2.016631
2005-06-24 08:37:25 51°10.432 2°35.567 17.8763 4.537426 34.407757 2.050341
2005-06-24 08:37:30 51°10.444 2°35.579 17.8776 4.535844 34.408319 2.08405
2005-06-24 08:37:35 51°10.46 2°35.593 17.8718 4.533734 34.400137 1.982922
2005-06-24 08:37:39 51°10.469 2°35.603 17.875 4.532996 34.400561 2.117759
2005-06-24 08:37:45 51°10.486 2°35.623 17.864 4.532996 34.400561 2.117759
2005-06-24 08:37:50 51°10.499 2°35.639 17.8691 4.532047 34.397366 2.117759
2005-06-24 08:37:55 51°10.511 2°35.656 17.8639 4.531414 34.393813 2.016631
2005-06-24 08:37:59 51°10.521 2°35.669 17.8627 4.531203 34.396894 1.982922
2005-06-24 08:38:05 51°10.536 2°35.69 17.8609 4.530254 34.393088 2.016631
2005-06-24 08:38:10 51°10.548 2°35.707 17.8579 4.530254 34.393088 2.016631
2005-06-24 08:38:15 51°10.559 2°35.722 17.8567 4.52941 34.391397 2.08405
2005-06-24 08:38:21 51°10.574 2°35.742 17.854 4.529516 34.395342 1.949212
2005-06-24 08:38:25 51°10.584 2°35.756 17.8536 4.528672 34.392432 1.915503
2005-06-24 08:38:30 51°10.597 2°35.772 17.8549 4.528461 34.391247 1.915503
2005-06-24 08:38:35 51°10.611 2°35.791 17.8516 4.528039 34.390097 1.949212
2005-06-24 08:38:41 51°10.624 2°35.809 17.8463 4.527934 34.392858 1.881794
2005-06-24 08:38:45 51°10.636 2°35.824 17.8472 4.527934 34.392858 1.881794
2005-06-24 08:38:49 51°10.646 2°35.838 17.8424 4.52709 34.387508 1.915503
2005-06-24 08:38:55 51°10.66 2°35.856 17.8338 4.527512 34.393537 1.881794
2005-06-24 08:38:59 51°10.67 2°35.87 17.8299 4.526458 34.388832 1.949212
2005-06-24 08:39:05 51°10.686 2°35.891 17.8278 4.526141 34.386139 1.949212
2005-06-24 08:39:09 51°10.696 2°35.905 17.8205 4.52593 34.385564 1.982922
2005-06-24 08:39:15 51°10.711 2°35.925 17.8205 4.52593 34.385564 1.982922
2005-06-24 08:39:20 51°10.724 2°35.942 17.7999 4.52593 34.389833 2.016631
2005-06-24 08:39:25 51°10.736 2°35.96 17.7957 4.525508 34.388073 2.08405
2005-06-24 08:39:30 51°10.747 2°35.975 17.7952 4.525508 34.389903 2.016631
2005-06-24 08:39:35 51°10.761 2°35.994 17.7824 4.524876 34.390618 1.982922
2005-06-24 08:39:39 51°10.77 2°36.005 17.7799 4.524876 34.390618 1.982922
2005-06-24 08:39:45 51°10.786 2°36.027 17.7729 4.525087 34.394245 1.915503
2005-06-24 08:39:49 51°10.797 2°36.041 17.7693 4.524138 34.391657 1.881794
2005-06-24 08:39:55 51°10.812 2°36.062 17.7653 4.518653 34.34923 1.949212
2005-06-24 08:39:59 51°10.821 2°36.075 17.7657 4.523188 34.393953 2.016631
2005-06-24 08:40:05 51°10.836 2°36.096 17.7574 4.522767 34.399522 2.117759
2005-06-24 08:40:10 51°10.848 2°36.113 17.7528 4.522767 34.399522 2.117759
2005-06-24 08:40:15 51°10.859 2°36.129 17.7506 4.520446 34.383419 2.117759
2005-06-24 08:40:21 51°10.874 2°36.149 17.7416 4.520236 34.390175 1.982922
2005-06-24 08:40:25 51°10.884 2°36.163 17.7431 4.519075 34.384565 1.949212
2005-06-24 08:40:30 51°10.897 2°36.18 17.7417 4.518759 34.38798 1.915503
2005-06-24 08:40:35 51°10.911 2°36.198 17.7394 4.517704 34.38388 2.016631
2005-06-24 08:40:41 51°10.924 2°36.217 17.7324 4.517915 34.389958 2.08405
2005-06-24 08:40:45 51°10.936 2°36.232 17.7339 4.517915 34.389958 2.08405
2005-06-24 08:40:49 51°10.946 2°36.246 17.7285 4.516861 34.384634 2.016631
2005-06-24 08:40:55 51°10.959 2°36.265 17.7307 4.516755 34.390462 2.016631
2005-06-24 08:40:59 51°10.969 2°36.278 17.7277 4.516228 34.389024 2.151469
2005-06-24 08:41:05 51°10.985 2°36.301 17.722 4.515912 34.390608 2.185178
2005-06-24 08:41:09 51°10.995 2°36.315 17.7256 4.51549 34.389457 2.151469
2005-06-24 08:41:15 51°11.01 2°36.335 17.7182 4.51549 34.389457 2.151469
2005-06-24 08:41:19 51°11.019 2°36.347 17.7191 4.515174 34.390429 2.08405
2005-06-24 08:41:25 51°11.035 2°36.37 17.7148 4.514963 34.389854 2.08405
2005-06-24 08:41:30 51°11.046 2°36.385 17.722 4.514963 34.394138 2.08405
2005-06-24 08:41:35 51°11.06 2°36.404 17.7094 4.514646 34.393275 2.08405
2005-06-24 08:41:39 51°11.068 2°36.416 17.7062 4.514646 34.393275 2.08405
2005-06-24 08:41:45 51°11.084 2°36.438 17.71 4.513908 34.388812 1.982922
2005-06-24 08:41:50 51°11.096 2°36.456 17.7033 4.513803 34.389749 1.982922
2005-06-24 08:41:55 51°11.109 2°36.473 17.7118 4.513592 34.390397 2.016631
2005-06-24 08:41:59 51°11.118 2°36.487 17.7017 4.513381 34.392271 1.949212
2005-06-24 08:42:05 51°11.133 2°36.507 17.7009 4.514014 34.398285 1.915503
2005-06-24 08:42:10 51°11.145 2°36.524 17.7021 4.514014 34.398285 1.915503
2005-06-24 08:42:15 51°11.157 2°36.539 17.6992 4.513486 34.394396 1.949212
2005-06-24 08:42:20 51°11.17 2°36.558 17.7017 4.513908 34.402285 1.949212
2005-06-24 08:42:25 51°11.181 2°36.573 17.6988 4.512537 34.393032 1.915503
2005-06-24 08:42:30 51°11.194 2°36.59 17.7001 4.512326 34.393069 1.982922
2005-06-24 08:42:35 51°11.207 2°36.609 17.6947 4.51201 34.39098 1.949212
2005-06-24 08:42:41 51°11.221 2°36.627 17.6922 4.51317 34.403949 1.949212
2005-06-24 08:42:45 51°11.232 2°36.643 17.6922 4.51317 34.403949 1.949212
2005-06-24 08:42:49 51°11.242 2°36.656 17.6995 4.512115 34.396782 1.915503
2005-06-24 08:42:55 51°11.256 2°36.675 17.6872 4.512537 34.40161 1.915503
2005-06-24 08:42:59 51°11.265 2°36.688 17.6915 4.512432 34.401322 1.881794
2005-06-24 08:43:05 51°11.282 2°36.71 17.6864 4.512326 34.401035 1.949212
2005-06-24 08:43:09 51°11.292 2°36.723 17.6823 4.512432 34.403161 1.982922
2005-06-24 08:43:15 51°11.307 2°36.744 17.6841 4.512432 34.403161 1.982922
2005-06-24 08:43:19 51°11.315 2°36.755 17.6766 4.512326 34.402873 2.050341
2005-06-24 08:43:25 51°11.331 2°36.777 17.6814 4.511588 34.400247 1.949212
2005-06-24 08:43:30 51°11.342 2°36.793 17.6761 4.511799 34.402048 1.949212
2005-06-24 08:43:35 51°11.356 2°36.812 17.6744 4.512116 34.40475 1.982922
2005-06-24 08:43:39 51°11.364 2°36.823 17.6727 4.512116 34.40475 1.982922
2005-06-24 08:43:45 51°11.38 2°36.846 17.6715 4.511483 34.401798 1.915503
2005-06-24 08:43:50 51°11.393 2°36.862 17.6714 4.511588 34.403925 1.949212
2005-06-24 08:43:55 51°11.405 2°36.879 17.6702 4.511272 34.403676 2.016631
2005-06-24 08:43:59 51°11.415 2°36.893 17.6758 4.51085 34.402525 1.982922
2005-06-24 08:44:05 51°11.43 2°36.912 17.6636 4.510745 34.403464 2.016631
2005-06-24 08:44:10 51°11.443 2°36.928 17.6628 4.510534 34.404115 1.949212
2005-06-24 08:44:15 51°11.454 2°36.942 17.6663 4.510534 34.404115 1.949212
2005-06-24 08:44:20 51°11.469 2°36.959 17.6648 4.510745 34.407144 1.949212
2005-06-24 08:44:25 51°11.481 2°36.973 17.6649 4.510217 34.404479 1.949212
2005-06-24 08:44:30 51°11.494 2°36.988 17.6702 4.510217 34.405706 2.016631
2005-06-24 08:44:35 51°11.509 2°37.005 17.6671 4.509901 34.404843 1.982922
2005-06-24 08:44:39 51°11.519 2°37.017 17.6682 4.509795 34.405782 2.016631
2005-06-24 08:44:45 51°11.535 2°37.035 17.6678 4.509795 34.405782 2.016631
2005-06-24 08:44:49 51°11.546 2°37.047 17.6669 4.509901 34.407911 2.016631
2005-06-24 08:44:55 51°11.561 2°37.063 17.6712 4.509374 34.405245 2.08405
2005-06-24 08:44:59 51°11.571 2°37.076 17.6697 4.509796 34.408237 2.185178
2005-06-24 08:45:05 51°11.589 2°37.095 17.6721 4.50969 34.407949 2.117759
2005-06-24 08:45:09 51°11.599 2°37.107 17.6739 4.50969 34.407949 2.117759
2005-06-24 08:45:15 51°11.616 2°37.125 17.6751 4.509374 34.405245 2.185178
2005-06-24 08:45:20 51°11.629 2°37.139 17.6786 4.509057 34.403155 2.117759
2005-06-24 08:45:25 51°11.642 2°37.154 17.6774 4.509479 34.404919 2.050341
2005-06-24 08:45:30 51°11.655 2°37.167 17.6754 4.509374 34.404018 2.117759
2005-06-24 08:45:35 51°11.669 2°37.184 17.6808 4.509268 34.402503 2.151469
2005-06-24 08:45:39 51°11.679 2°37.194 17.686 4.509268 34.402503 2.151469
2005-06-24 08:45:45 51°11.696 2°37.212 17.6855 4.509479 34.403079 2.117759
2005-06-24 08:45:50 51°11.71 2°37.226 17.6898 4.509795 34.404555 2.117759
2005-06-24 08:45:55 51°11.724 2°37.241 17.6921 4.510112 34.405418 2.151469
2005-06-24 08:45:59 51°11.735 2°37.252 17.6971 4.510428 34.406895 2.218888
2005-06-24 08:46:05 51°11.751 2°37.269 17.6975 4.510112 34.402965 2.185178
2005-06-24 08:46:10 51°11.765 2°37.283 17.7003 4.510112 34.404191 2.218888
2005-06-24 08:46:15 51°11.777 2°37.296 17.6996 4.510112 34.404191 2.218888
2005-06-24 08:46:20 51°11.792 2°37.312 17.7031 4.51085 34.408045 2.185178
2005-06-24 08:46:25 51°11.804 2°37.325 17.6998 4.511166 34.408908 2.185178
2005-06-24 08:46:30 51°11.818 2°37.339 17.701 4.510745 34.402851 2.185178
2005-06-24 08:46:35 51°11.833 2°37.355 17.7005 4.511483 34.406704 2.185178
2005-06-24 08:46:39 51°11.844 2°37.367 17.7016 4.511272 34.40061 2.151469
2005-06-24 08:46:45 51°11.86 2°37.384 17.7029 4.511272 34.40061 2.151469
2005-06-24 08:46:49 51°11.871 2°37.395 17.7059 4.51201 34.405076 2.117759
2005-06-24 08:46:55 51°11.886 2°37.411 17.7084 4.512221 34.405038 2.016631
2005-06-24 08:46:59 51°11.897 2°37.423 17.7061 4.512432 34.405613 2.016631
2005-06-24 08:47:05 51°11.914 2°37.441 17.706 4.512748 34.407089 2.050341
2005-06-24 08:47:09 51°11.925 2°37.453 17.71 4.512748 34.407089 2.050341
2005-06-24 08:47:15 51°11.942 2°37.47 17.7086 4.512537 34.405288 2.050341
2005-06-24 08:47:20 51°11.955 2°37.484 17.7092 4.512959 34.408277 2.050341
2005-06-24 08:47:25 51°11.969 2°37.498 17.7095 4.513065 34.409791 2.117759
2005-06-24 08:47:30 51°11.981 2°37.511 17.7146 4.513065 34.407339 2.117759
2005-06-24 08:47:35 51°11.996 2°37.527 17.7057 4.513697 34.410903 2.050341
2005-06-24 08:47:39 51°12.006 2°37.537 17.7028 4.514225 34.413567 2.016631
2005-06-24 08:47:45 51°12.024 2°37.555 17.7015 4.514225 34.413567 2.016631
2005-06-24 08:47:50 51°12.037 2°37.569 17.6981 4.513697 34.41029 2.050341
2005-06-24 08:47:55 51°12.051 2°37.584 17.6971 4.513592 34.408164 2.08405
2005-06-24 08:47:59 51°12.062 2°37.596 17.6954 4.51433 34.414467 2.050341
2005-06-24 08:48:05 51°12.078 2°37.613 17.6944 4.513803 34.409965 2.08405
2005-06-24 08:48:10 51°12.091 2°37.627 17.6911 4.514225 34.412341 2.08405
2005-06-24 08:48:15 51°12.104 2°37.641 17.6918 4.514225 34.412341 2.08405
2005-06-24 08:48:20 51°12.118 2°37.657 17.693 4.513908 34.411478 1.982922
2005-06-24 08:48:25 51°12.13 2°37.67 17.6918 4.513487 34.409102 2.08405
2005-06-24 08:48:30 51°12.144 2°37.684 17.6949 4.513698 34.412743 2.08405
2005-06-24 08:48:35 51°12.159 2°37.7 17.6944 4.513803 34.417323 2.050341
2005-06-24 08:48:40 51°12.173 2°37.714 17.7012 4.513487 34.415847 2.117759
2005-06-24 08:48:45 51°12.185 2°37.727 17.7033 4.513487 34.415847 2.117759
2005-06-24 08:48:50 51°12.198 2°37.742 17.7115 4.513381 34.415559 2.252597
2005-06-24 08:48:55 51°12.212 2°37.757 17.7158 4.512959 34.413796 2.151469
2005-06-24 08:48:59 51°12.224 2°37.77 17.7218 4.513487 34.417687 2.151469
2005-06-24 08:49:05 51°12.24 2°37.787 17.7288 4.512959 34.415023 2.151469
2005-06-24 08:49:09 51°12.251 2°37.798 17.7369 4.512959 34.415023 2.151469
2005-06-24 08:49:15 51°12.266 2°37.814 17.7433 4.512537 34.411419 2.320016
2005-06-24 08:49:20 51°12.281 2°37.829 17.749 4.512748 34.410768 2.185178
2005-06-24 08:49:25 51°12.295 2°37.843 17.7598 4.512959 34.410117 2.151469
2005-06-24 08:49:30 51°12.307 2°37.856 17.7665 4.51317 34.407626 2.08405
2005-06-24 08:49:35 51°12.321 2°37.87 17.7765 4.514014 34.41054 2.08405
2005-06-24 08:49:40 51°12.336 2°37.886 17.7835 4.514119 34.40715 2.117759
2005-06-24 08:49:45 51°12.349 2°37.901 17.794 4.514119 34.40715 2.117759
2005-06-24 08:49:49 51°12.36 2°37.912 17.8036 4.514752 34.405199 2.151469
2005-06-24 08:49:55 51°12.376 2°37.929 17.8109 4.515174 34.403286 2.151469
2005-06-24 08:50:00 51°12.39 2°37.943 17.8198 4.515596 34.401375 2.185178
2005-06-24 08:50:05 51°12.403 2°37.958 17.8282 4.51665 34.402414 2.185178
2005-06-24 08:50:10 51°12.417 2°37.972 17.837 4.51665 34.402414 2.185178
2005-06-24 08:50:15 51°12.429 2°37.985 17.8445 4.517494 34.399818 2.117759
2005-06-24 08:50:20 51°12.444 2°38.001 17.8524 4.518337 34.400283 2.151469
2005-06-24 08:50:25 51°12.457 2°38.015 17.8595 4.518654 34.393806 2.185178
2005-06-24 08:50:29 51°12.468 2°38.027 17.8685 4.519075 34.390677 2.286306
2005-06-24 08:50:35 51°12.483 2°38.042 17.8791 4.519919 34.389923 2.320016
2005-06-24 08:50:40 51°12.498 2°38.058 17.8876 4.519919 34.389923 2.320016
2005-06-24 08:50:45 51°12.511 2°38.072 17.8982 4.520024 34.381657 2.320016
2005-06-24 08:50:49 51°12.522 2°38.083 17.9066 4.521185 34.382991 2.286306
2005-06-24 08:50:54 51°12.535 2°38.096 17.9181 4.521606 34.378037 2.185178
2005-06-24 08:51:00 51°12.552 2°38.114 17.9284 4.52245 34.377288 2.151469
2005-06-24 08:51:05 51°12.566 2°38.128 17.9354 4.52245 34.368138 2.151469
2005-06-24 08:51:10 51°12.578 2°38.14 17.9439 4.52245 34.368138 2.151469
2005-06-24 08:51:15 51°12.592 2°38.155 17.9507 4.522555 34.362329 2.08405
2005-06-24 08:51:19 51°12.604 2°38.167 17.9575 4.523082 34.357675 2.117759
2005-06-24 08:51:25 51°12.621 2°38.184 17.9627 4.522977 34.348859 2.117759
2005-06-24 08:51:30 51°12.634 2°38.198 17.9673 4.524031 34.34687 2.185178
2005-06-24 08:51:35 51°12.648 2°38.212 17.9717 4.524137 34.340464 2.185178
2005-06-24 08:51:39 51°12.657 2°38.222 17.9776 4.524136 34.330124 2.218888
2005-06-24 08:51:46 51°12.676 2°38.241 17.9836 4.524136 34.330124 2.218888
2005-06-24 08:51:50 51°12.689 2°38.254 17.9867 4.524769 34.327599 2.151469
2005-06-24 08:51:55 51°12.702 2°38.268 17.9916 4.524769 34.317269 2.185178
2005-06-24 08:52:00 51°12.716 2°38.282 17.9962 4.525085 34.313883 2.151469
2005-06-24 08:52:05 51°12.729 2°38.296 18.0011 4.52498 34.305703 2.218888
2005-06-24 08:52:10 51°12.743 2°38.31 18.0058 4.52498 34.300241 2.185178
2005-06-24 08:52:15 51°12.757 2°38.324 18.0102 4.52498 34.300241 2.185178
2005-06-24 08:52:20 51°12.77 2°38.338 18.013 4.524769 34.294204 2.218888
2005-06-24 08:52:25 51°12.784 2°38.352 18.0177 4.525296 34.292616 2.320016
2005-06-24 08:52:30 51°12.797 2°38.366 18.0208 4.525401 34.288055 2.218888
2005-06-24 08:52:35 51°12.81 2°38.379 18.0253 4.524768 34.277231 2.185178
2005-06-24 08:52:40 51°12.825 2°38.394 18.0271 4.524768 34.277231 2.185178
2005-06-24 08:52:45 51°12.838 2°38.409 18.032 4.524452 34.269701 2.218888
2005-06-24 08:52:50 51°12.851 2°38.423 18.0348 4.524557 34.266962 2.218888
2005-06-24 08:52:55 51°12.865 2°38.438 18.0394 4.524768 34.263908 2.286306
2005-06-24 08:52:59 51°12.876 2°38.449 18.043 4.524557 34.258487 2.218888
2005-06-24 08:53:05 51°12.892 2°38.466 18.0482 4.524979 34.257224 2.218888
2005-06-24 08:53:10 51°12.906 2°38.481 18.0529 4.524346 34.248834 2.151469
2005-06-24 08:53:15 51°12.918 2°38.493 18.0544 4.524346 34.248834 2.151469
2005-06-24 08:53:19 51°12.93 2°38.506 18.0559 4.524557 34.245784 2.117759
2005-06-24 08:53:25 51°12.947 2°38.521 18.0577 4.524451 34.241262 2.185178
2005-06-24 08:53:29 51°12.959 2°38.531 18.0601 4.524557 34.23853 2.252597
2005-06-24 08:53:35 51°12.975 2°38.544 18.059 4.525084 34.238768 2.218888
2005-06-24 08:53:39 51°12.987 2°38.553 18.0574 4.5254 34.238428 2.286306
2005-06-24 08:53:45 51°13.006 2°38.566 18.0577 4.5254 34.238428 2.286306
2005-06-24 08:53:50 51°13.021 2°38.576 18.0584 4.526033 34.240165 2.218888
2005-06-24 08:53:55 51°13.035 2°38.584 18.0581 4.526982 34.244583 2.353725